<?xml version="1.0" encoding="UTF-8" standalone="no" ?>
<gpx xmlns="http://www.topografix.com/GPX/1/1" xmlns:xsi="http://www.w3.org/2001/XMLSchema-instance" xsi:schemaLocation="http://www.topografix.com/GPX/1/1 http://www.topografix.com/GPX/1/1/gpx.xsd" version="1.1" creator="VisuGPX - https://www.visugpx.com">
  <metadata>
    <name>MILLAU J1 et 2</name>
  </metadata>
  <trk>
    <name><![CDATA[MILLAU J1 - La Roque-Sainte-Marguerite VTT]]></name>
    <trkseg>
      <trkpt lat="44.10739" lon="3.2172">
        <ele>704.20001220703</ele>
        <time>2020-10-02T15:06:10.000Z</time>
      </trkpt>
      <trkpt lat="44.1074" lon="3.21719">
        <ele>701.79998779297</ele>
        <time>2020-10-02T15:06:11.000Z</time>
      </trkpt>
      <trkpt lat="44.10742" lon="3.21717">
        <ele>700.59997558594</ele>
        <time>2020-10-02T15:06:12.000Z</time>
      </trkpt>
      <trkpt lat="44.10743" lon="3.21715">
        <ele>699.59997558594</ele>
        <time>2020-10-02T15:06:14.000Z</time>
      </trkpt>
      <trkpt lat="44.10743" lon="3.21714">
        <ele>699.20001220703</ele>
        <time>2020-10-02T15:06:22.000Z</time>
      </trkpt>
      <trkpt lat="44.10744" lon="3.21713">
        <ele>699.40002441406</ele>
        <time>2020-10-02T15:06:37.000Z</time>
      </trkpt>
      <trkpt lat="44.10746" lon="3.21712">
        <ele>699.20001220703</ele>
        <time>2020-10-02T15:06:54.000Z</time>
      </trkpt>
      <trkpt lat="44.10743" lon="3.21711">
        <ele>699.20001220703</ele>
        <time>2020-10-02T15:07:12.000Z</time>
      </trkpt>
      <trkpt lat="44.10739" lon="3.21711">
        <ele>699.20001220703</ele>
        <time>2020-10-02T15:07:14.000Z</time>
      </trkpt>
      <trkpt lat="44.1073" lon="3.21713">
        <ele>699.40002441406</ele>
        <time>2020-10-02T15:07:19.000Z</time>
      </trkpt>
      <trkpt lat="44.10717" lon="3.21722">
        <ele>699.59997558594</ele>
        <time>2020-10-02T15:07:25.000Z</time>
      </trkpt>
      <trkpt lat="44.10714" lon="3.21734">
        <ele>700.20001220703</ele>
        <time>2020-10-02T15:07:30.000Z</time>
      </trkpt>
      <trkpt lat="44.10721" lon="3.21742">
        <ele>700.20001220703</ele>
        <time>2020-10-02T15:07:35.000Z</time>
      </trkpt>
      <trkpt lat="44.10725" lon="3.21743">
        <ele>700.40002441406</ele>
        <time>2020-10-02T15:07:37.000Z</time>
      </trkpt>
      <trkpt lat="44.10739" lon="3.21743">
        <ele>700.59997558594</ele>
        <time>2020-10-02T15:07:42.000Z</time>
      </trkpt>
      <trkpt lat="44.10743" lon="3.21748">
        <ele>701</ele>
        <time>2020-10-02T15:07:44.000Z</time>
      </trkpt>
      <trkpt lat="44.10744" lon="3.21753">
        <ele>701.20001220703</ele>
        <time>2020-10-02T15:07:45.000Z</time>
      </trkpt>
      <trkpt lat="44.10743" lon="3.2177">
        <ele>701.40002441406</ele>
        <time>2020-10-02T15:07:49.000Z</time>
      </trkpt>
      <trkpt lat="44.10743" lon="3.21774">
        <ele>701.40002441406</ele>
        <time>2020-10-02T15:07:50.000Z</time>
      </trkpt>
      <trkpt lat="44.10742" lon="3.21779">
        <ele>702.40002441406</ele>
        <time>2020-10-02T15:07:53.000Z</time>
      </trkpt>
      <trkpt lat="44.10742" lon="3.21779">
        <ele>702.40002441406</ele>
        <time>2020-10-02T15:07:54.000Z</time>
      </trkpt>
      <trkpt lat="44.1074" lon="3.21784">
        <ele>702.40002441406</ele>
        <time>2020-10-02T15:08:02.000Z</time>
      </trkpt>
      <trkpt lat="44.10738" lon="3.21789">
        <ele>702</ele>
        <time>2020-10-02T15:08:09.000Z</time>
      </trkpt>
      <trkpt lat="44.10742" lon="3.21786">
        <ele>702</ele>
        <time>2020-10-02T15:08:14.000Z</time>
      </trkpt>
      <trkpt lat="44.10744" lon="3.21781">
        <ele>702</ele>
        <time>2020-10-02T15:08:20.000Z</time>
      </trkpt>
      <trkpt lat="44.10744" lon="3.21775">
        <ele>702.40002441406</ele>
        <time>2020-10-02T15:08:27.000Z</time>
      </trkpt>
      <trkpt lat="44.10746" lon="3.2176">
        <ele>702.40002441406</ele>
        <time>2020-10-02T15:08:31.000Z</time>
      </trkpt>
      <trkpt lat="44.1075" lon="3.2175">
        <ele>702.40002441406</ele>
        <time>2020-10-02T15:08:33.000Z</time>
      </trkpt>
      <trkpt lat="44.10755" lon="3.21749">
        <ele>702.40002441406</ele>
        <time>2020-10-02T15:08:34.000Z</time>
      </trkpt>
      <trkpt lat="44.10766" lon="3.21746">
        <ele>702.40002441406</ele>
        <time>2020-10-02T15:08:37.000Z</time>
      </trkpt>
      <trkpt lat="44.10773" lon="3.21745">
        <ele>702.40002441406</ele>
        <time>2020-10-02T15:08:39.000Z</time>
      </trkpt>
      <trkpt lat="44.10793" lon="3.2175">
        <ele>702.20001220703</ele>
        <time>2020-10-02T15:08:45.000Z</time>
      </trkpt>
      <trkpt lat="44.10797" lon="3.21758">
        <ele>702.20001220703</ele>
        <time>2020-10-02T15:08:49.000Z</time>
      </trkpt>
      <trkpt lat="44.108" lon="3.21781">
        <ele>702.40002441406</ele>
        <time>2020-10-02T15:08:54.000Z</time>
      </trkpt>
      <trkpt lat="44.10813" lon="3.21805">
        <ele>702.20001220703</ele>
        <time>2020-10-02T15:08:58.000Z</time>
      </trkpt>
      <trkpt lat="44.1083" lon="3.2183">
        <ele>702</ele>
        <time>2020-10-02T15:09:01.000Z</time>
      </trkpt>
      <trkpt lat="44.10834" lon="3.21839">
        <ele>701.79998779297</ele>
        <time>2020-10-02T15:09:02.000Z</time>
      </trkpt>
      <trkpt lat="44.10837" lon="3.21849">
        <ele>701.40002441406</ele>
        <time>2020-10-02T15:09:03.000Z</time>
      </trkpt>
      <trkpt lat="44.10842" lon="3.21867">
        <ele>700.40002441406</ele>
        <time>2020-10-02T15:09:05.000Z</time>
      </trkpt>
      <trkpt lat="44.10847" lon="3.21873">
        <ele>700</ele>
        <time>2020-10-02T15:09:06.000Z</time>
      </trkpt>
      <trkpt lat="44.10856" lon="3.21883">
        <ele>698.59997558594</ele>
        <time>2020-10-02T15:09:08.000Z</time>
      </trkpt>
      <trkpt lat="44.10862" lon="3.21887">
        <ele>697.40002441406</ele>
        <time>2020-10-02T15:09:09.000Z</time>
      </trkpt>
      <trkpt lat="44.10866" lon="3.21891">
        <ele>696.20001220703</ele>
        <time>2020-10-02T15:09:10.000Z</time>
      </trkpt>
      <trkpt lat="44.1087" lon="3.21894">
        <ele>695.20001220703</ele>
        <time>2020-10-02T15:09:11.000Z</time>
      </trkpt>
      <trkpt lat="44.10875" lon="3.21898">
        <ele>693.79998779297</ele>
        <time>2020-10-02T15:09:12.000Z</time>
      </trkpt>
      <trkpt lat="44.10883" lon="3.21904">
        <ele>692.79998779297</ele>
        <time>2020-10-02T15:09:14.000Z</time>
      </trkpt>
      <trkpt lat="44.10894" lon="3.21912">
        <ele>692.59997558594</ele>
        <time>2020-10-02T15:09:17.000Z</time>
      </trkpt>
      <trkpt lat="44.10905" lon="3.21927">
        <ele>692.59997558594</ele>
        <time>2020-10-02T15:09:22.000Z</time>
      </trkpt>
      <trkpt lat="44.10917" lon="3.21938">
        <ele>693.40002441406</ele>
        <time>2020-10-02T15:09:28.000Z</time>
      </trkpt>
      <trkpt lat="44.10921" lon="3.21943">
        <ele>693.79998779297</ele>
        <time>2020-10-02T15:09:31.000Z</time>
      </trkpt>
      <trkpt lat="44.10924" lon="3.21949">
        <ele>694.59997558594</ele>
        <time>2020-10-02T15:09:34.000Z</time>
      </trkpt>
      <trkpt lat="44.10925" lon="3.21955">
        <ele>695</ele>
        <time>2020-10-02T15:09:36.000Z</time>
      </trkpt>
      <trkpt lat="44.10932" lon="3.21966">
        <ele>695.59997558594</ele>
        <time>2020-10-02T15:09:40.000Z</time>
      </trkpt>
      <trkpt lat="44.10935" lon="3.21972">
        <ele>696</ele>
        <time>2020-10-02T15:09:42.000Z</time>
      </trkpt>
      <trkpt lat="44.10945" lon="3.21984">
        <ele>697.20001220703</ele>
        <time>2020-10-02T15:09:46.000Z</time>
      </trkpt>
      <trkpt lat="44.10952" lon="3.21992">
        <ele>698.20001220703</ele>
        <time>2020-10-02T15:09:49.000Z</time>
      </trkpt>
      <trkpt lat="44.10954" lon="3.21995">
        <ele>698.40002441406</ele>
        <time>2020-10-02T15:09:50.000Z</time>
      </trkpt>
      <trkpt lat="44.10962" lon="3.22011">
        <ele>699.59997558594</ele>
        <time>2020-10-02T15:09:55.000Z</time>
      </trkpt>
      <trkpt lat="44.10965" lon="3.2202">
        <ele>700.20001220703</ele>
        <time>2020-10-02T15:09:57.000Z</time>
      </trkpt>
      <trkpt lat="44.1097" lon="3.22032">
        <ele>700.59997558594</ele>
        <time>2020-10-02T15:10:00.000Z</time>
      </trkpt>
      <trkpt lat="44.10973" lon="3.22038">
        <ele>700.79998779297</ele>
        <time>2020-10-02T15:10:02.000Z</time>
      </trkpt>
      <trkpt lat="44.10985" lon="3.22049">
        <ele>701.20001220703</ele>
        <time>2020-10-02T15:10:07.000Z</time>
      </trkpt>
      <trkpt lat="44.11003" lon="3.22064">
        <ele>701.59997558594</ele>
        <time>2020-10-02T15:10:13.000Z</time>
      </trkpt>
      <trkpt lat="44.11017" lon="3.22073">
        <ele>702.20001220703</ele>
        <time>2020-10-02T15:10:16.000Z</time>
      </trkpt>
      <trkpt lat="44.11028" lon="3.22096">
        <ele>702.59997558594</ele>
        <time>2020-10-02T15:10:22.000Z</time>
      </trkpt>
      <trkpt lat="44.11027" lon="3.22105">
        <ele>702.79998779297</ele>
        <time>2020-10-02T15:10:25.000Z</time>
      </trkpt>
      <trkpt lat="44.11025" lon="3.22111">
        <ele>703</ele>
        <time>2020-10-02T15:10:27.000Z</time>
      </trkpt>
      <trkpt lat="44.11022" lon="3.22131">
        <ele>703.79998779297</ele>
        <time>2020-10-02T15:10:34.000Z</time>
      </trkpt>
      <trkpt lat="44.11022" lon="3.2214">
        <ele>705.20001220703</ele>
        <time>2020-10-02T15:10:37.000Z</time>
      </trkpt>
      <trkpt lat="44.11021" lon="3.22147">
        <ele>706</ele>
        <time>2020-10-02T15:10:40.000Z</time>
      </trkpt>
      <trkpt lat="44.11021" lon="3.22158">
        <ele>707</ele>
        <time>2020-10-02T15:10:44.000Z</time>
      </trkpt>
      <trkpt lat="44.11021" lon="3.22164">
        <ele>707.40002441406</ele>
        <time>2020-10-02T15:10:46.000Z</time>
      </trkpt>
      <trkpt lat="44.11019" lon="3.22177">
        <ele>708</ele>
        <time>2020-10-02T15:10:51.000Z</time>
      </trkpt>
      <trkpt lat="44.11019" lon="3.22179">
        <ele>708.59997558594</ele>
        <time>2020-10-02T15:10:52.000Z</time>
      </trkpt>
      <trkpt lat="44.11019" lon="3.22191">
        <ele>709.59997558594</ele>
        <time>2020-10-02T15:10:56.000Z</time>
      </trkpt>
      <trkpt lat="44.11018" lon="3.22201">
        <ele>710.59997558594</ele>
        <time>2020-10-02T15:11:00.000Z</time>
      </trkpt>
      <trkpt lat="44.11018" lon="3.22204">
        <ele>710.79998779297</ele>
        <time>2020-10-02T15:11:01.000Z</time>
      </trkpt>
      <trkpt lat="44.11017" lon="3.22206">
        <ele>711</ele>
        <time>2020-10-02T15:11:02.000Z</time>
      </trkpt>
      <trkpt lat="44.11016" lon="3.22216">
        <ele>712</ele>
        <time>2020-10-02T15:11:06.000Z</time>
      </trkpt>
      <trkpt lat="44.11017" lon="3.22232">
        <ele>713</ele>
        <time>2020-10-02T15:11:11.000Z</time>
      </trkpt>
      <trkpt lat="44.11017" lon="3.22244">
        <ele>714</ele>
        <time>2020-10-02T15:11:15.000Z</time>
      </trkpt>
      <trkpt lat="44.11015" lon="3.2226">
        <ele>715.40002441406</ele>
        <time>2020-10-02T15:11:20.000Z</time>
      </trkpt>
      <trkpt lat="44.11013" lon="3.22271">
        <ele>716.59997558594</ele>
        <time>2020-10-02T15:11:24.000Z</time>
      </trkpt>
      <trkpt lat="44.11012" lon="3.22274">
        <ele>716.79998779297</ele>
        <time>2020-10-02T15:11:25.000Z</time>
      </trkpt>
      <trkpt lat="44.1101" lon="3.22289">
        <ele>717.59997558594</ele>
        <time>2020-10-02T15:11:30.000Z</time>
      </trkpt>
      <trkpt lat="44.11009" lon="3.22296">
        <ele>718</ele>
        <time>2020-10-02T15:11:32.000Z</time>
      </trkpt>
      <trkpt lat="44.11008" lon="3.2231">
        <ele>718.79998779297</ele>
        <time>2020-10-02T15:11:37.000Z</time>
      </trkpt>
      <trkpt lat="44.11008" lon="3.22323">
        <ele>720</ele>
        <time>2020-10-02T15:11:42.000Z</time>
      </trkpt>
      <trkpt lat="44.11008" lon="3.22325">
        <ele>720.20001220703</ele>
        <time>2020-10-02T15:11:43.000Z</time>
      </trkpt>
      <trkpt lat="44.11006" lon="3.22337">
        <ele>721.20001220703</ele>
        <time>2020-10-02T15:11:48.000Z</time>
      </trkpt>
      <trkpt lat="44.11004" lon="3.22348">
        <ele>722.20001220703</ele>
        <time>2020-10-02T15:11:52.000Z</time>
      </trkpt>
      <trkpt lat="44.11004" lon="3.22351">
        <ele>722.40002441406</ele>
        <time>2020-10-02T15:11:53.000Z</time>
      </trkpt>
      <trkpt lat="44.11002" lon="3.22366">
        <ele>723.40002441406</ele>
        <time>2020-10-02T15:11:58.000Z</time>
      </trkpt>
      <trkpt lat="44.11001" lon="3.22377">
        <ele>724.20001220703</ele>
        <time>2020-10-02T15:12:02.000Z</time>
      </trkpt>
      <trkpt lat="44.11001" lon="3.22382">
        <ele>724.59997558594</ele>
        <time>2020-10-02T15:12:04.000Z</time>
      </trkpt>
      <trkpt lat="44.11" lon="3.22398">
        <ele>725.79998779297</ele>
        <time>2020-10-02T15:12:10.000Z</time>
      </trkpt>
      <trkpt lat="44.11" lon="3.22401">
        <ele>726</ele>
        <time>2020-10-02T15:12:11.000Z</time>
      </trkpt>
      <trkpt lat="44.10998" lon="3.2241">
        <ele>726.79998779297</ele>
        <time>2020-10-02T15:12:15.000Z</time>
      </trkpt>
      <trkpt lat="44.10997" lon="3.22418">
        <ele>728</ele>
        <time>2020-10-02T15:12:18.000Z</time>
      </trkpt>
      <trkpt lat="44.10997" lon="3.22421">
        <ele>728.20001220703</ele>
        <time>2020-10-02T15:12:19.000Z</time>
      </trkpt>
      <trkpt lat="44.10994" lon="3.22434">
        <ele>729</ele>
        <time>2020-10-02T15:12:24.000Z</time>
      </trkpt>
      <trkpt lat="44.10993" lon="3.22446">
        <ele>729.79998779297</ele>
        <time>2020-10-02T15:12:29.000Z</time>
      </trkpt>
      <trkpt lat="44.10993" lon="3.22453">
        <ele>730.40002441406</ele>
        <time>2020-10-02T15:12:32.000Z</time>
      </trkpt>
      <trkpt lat="44.10992" lon="3.22463">
        <ele>731.40002441406</ele>
        <time>2020-10-02T15:12:37.000Z</time>
      </trkpt>
      <trkpt lat="44.10991" lon="3.22471">
        <ele>732</ele>
        <time>2020-10-02T15:12:40.000Z</time>
      </trkpt>
      <trkpt lat="44.10991" lon="3.22472">
        <ele>732.20001220703</ele>
        <time>2020-10-02T15:12:41.000Z</time>
      </trkpt>
      <trkpt lat="44.1099" lon="3.22473">
        <ele>732.40002441406</ele>
        <time>2020-10-02T15:12:42.000Z</time>
      </trkpt>
      <trkpt lat="44.10989" lon="3.22478">
        <ele>733</ele>
        <time>2020-10-02T15:12:45.000Z</time>
      </trkpt>
      <trkpt lat="44.10989" lon="3.2248">
        <ele>733.59997558594</ele>
        <time>2020-10-02T15:12:47.000Z</time>
      </trkpt>
      <trkpt lat="44.10985" lon="3.22483">
        <ele>734.40002441406</ele>
        <time>2020-10-02T15:12:51.000Z</time>
      </trkpt>
      <trkpt lat="44.10984" lon="3.22483">
        <ele>734.79998779297</ele>
        <time>2020-10-02T15:12:52.000Z</time>
      </trkpt>
      <trkpt lat="44.10984" lon="3.22487">
        <ele>735.40002441406</ele>
        <time>2020-10-02T15:12:55.000Z</time>
      </trkpt>
      <trkpt lat="44.10985" lon="3.2249">
        <ele>735.79998779297</ele>
        <time>2020-10-02T15:12:57.000Z</time>
      </trkpt>
      <trkpt lat="44.10987" lon="3.22502">
        <ele>737</ele>
        <time>2020-10-02T15:13:02.000Z</time>
      </trkpt>
      <trkpt lat="44.10988" lon="3.22503">
        <ele>737.20001220703</ele>
        <time>2020-10-02T15:13:03.000Z</time>
      </trkpt>
      <trkpt lat="44.1099" lon="3.22512">
        <ele>738</ele>
        <time>2020-10-02T15:13:07.000Z</time>
      </trkpt>
      <trkpt lat="44.1099" lon="3.22517">
        <ele>738.20001220703</ele>
        <time>2020-10-02T15:13:09.000Z</time>
      </trkpt>
      <trkpt lat="44.10989" lon="3.22522">
        <ele>739</ele>
        <time>2020-10-02T15:13:12.000Z</time>
      </trkpt>
      <trkpt lat="44.10989" lon="3.22532">
        <ele>740</ele>
        <time>2020-10-02T15:13:16.000Z</time>
      </trkpt>
      <trkpt lat="44.10989" lon="3.22539">
        <ele>740.59997558594</ele>
        <time>2020-10-02T15:13:18.000Z</time>
      </trkpt>
      <trkpt lat="44.10989" lon="3.22543">
        <ele>741.20001220703</ele>
        <time>2020-10-02T15:13:20.000Z</time>
      </trkpt>
      <trkpt lat="44.10986" lon="3.22562">
        <ele>742.40002441406</ele>
        <time>2020-10-02T15:13:28.000Z</time>
      </trkpt>
      <trkpt lat="44.10983" lon="3.22573">
        <ele>743.59997558594</ele>
        <time>2020-10-02T15:13:34.000Z</time>
      </trkpt>
      <trkpt lat="44.10983" lon="3.22576">
        <ele>744</ele>
        <time>2020-10-02T15:13:36.000Z</time>
      </trkpt>
      <trkpt lat="44.1098" lon="3.22579">
        <ele>744.20001220703</ele>
        <time>2020-10-02T15:13:39.000Z</time>
      </trkpt>
      <trkpt lat="44.10978" lon="3.22583">
        <ele>744.59997558594</ele>
        <time>2020-10-02T15:13:42.000Z</time>
      </trkpt>
      <trkpt lat="44.10978" lon="3.22584">
        <ele>744.59997558594</ele>
        <time>2020-10-02T15:13:43.000Z</time>
      </trkpt>
      <trkpt lat="44.10975" lon="3.22595">
        <ele>744.59997558594</ele>
        <time>2020-10-02T15:13:50.000Z</time>
      </trkpt>
      <trkpt lat="44.10972" lon="3.226">
        <ele>744.59997558594</ele>
        <time>2020-10-02T15:13:54.000Z</time>
      </trkpt>
      <trkpt lat="44.1097" lon="3.22601">
        <ele>744.59997558594</ele>
        <time>2020-10-02T15:13:56.000Z</time>
      </trkpt>
      <trkpt lat="44.10967" lon="3.22612">
        <ele>745</ele>
        <time>2020-10-02T15:14:05.000Z</time>
      </trkpt>
      <trkpt lat="44.10964" lon="3.22623">
        <ele>745.40002441406</ele>
        <time>2020-10-02T15:14:11.000Z</time>
      </trkpt>
      <trkpt lat="44.10963" lon="3.22627">
        <ele>745.59997558594</ele>
        <time>2020-10-02T15:14:14.000Z</time>
      </trkpt>
      <trkpt lat="44.10963" lon="3.22628">
        <ele>745.59997558594</ele>
        <time>2020-10-02T15:14:15.000Z</time>
      </trkpt>
      <trkpt lat="44.10963" lon="3.22631">
        <ele>745.79998779297</ele>
        <time>2020-10-02T15:14:17.000Z</time>
      </trkpt>
      <trkpt lat="44.10962" lon="3.22635">
        <ele>746</ele>
        <time>2020-10-02T15:14:19.000Z</time>
      </trkpt>
      <trkpt lat="44.10961" lon="3.22638">
        <ele>746.40002441406</ele>
        <time>2020-10-02T15:14:21.000Z</time>
      </trkpt>
      <trkpt lat="44.1096" lon="3.22646">
        <ele>747</ele>
        <time>2020-10-02T15:14:25.000Z</time>
      </trkpt>
      <trkpt lat="44.10962" lon="3.22655">
        <ele>747.59997558594</ele>
        <time>2020-10-02T15:14:28.000Z</time>
      </trkpt>
      <trkpt lat="44.10963" lon="3.2266">
        <ele>748</ele>
        <time>2020-10-02T15:14:30.000Z</time>
      </trkpt>
      <trkpt lat="44.10967" lon="3.22674">
        <ele>749</ele>
        <time>2020-10-02T15:14:34.000Z</time>
      </trkpt>
      <trkpt lat="44.10967" lon="3.22678">
        <ele>749.20001220703</ele>
        <time>2020-10-02T15:14:35.000Z</time>
      </trkpt>
      <trkpt lat="44.10965" lon="3.22685">
        <ele>749.59997558594</ele>
        <time>2020-10-02T15:14:37.000Z</time>
      </trkpt>
      <trkpt lat="44.1096" lon="3.22698">
        <ele>750.40002441406</ele>
        <time>2020-10-02T15:14:42.000Z</time>
      </trkpt>
      <trkpt lat="44.10953" lon="3.22711">
        <ele>751.20001220703</ele>
        <time>2020-10-02T15:14:48.000Z</time>
      </trkpt>
      <trkpt lat="44.10948" lon="3.22716">
        <ele>751.59997558594</ele>
        <time>2020-10-02T15:14:51.000Z</time>
      </trkpt>
      <trkpt lat="44.10939" lon="3.2273">
        <ele>752.40002441406</ele>
        <time>2020-10-02T15:14:59.000Z</time>
      </trkpt>
      <trkpt lat="44.10936" lon="3.22734">
        <ele>752.79998779297</ele>
        <time>2020-10-02T15:15:01.000Z</time>
      </trkpt>
      <trkpt lat="44.10927" lon="3.22747">
        <ele>753.79998779297</ele>
        <time>2020-10-02T15:15:08.000Z</time>
      </trkpt>
      <trkpt lat="44.10923" lon="3.22752">
        <ele>754.20001220703</ele>
        <time>2020-10-02T15:15:11.000Z</time>
      </trkpt>
      <trkpt lat="44.10913" lon="3.22759">
        <ele>754.79998779297</ele>
        <time>2020-10-02T15:15:17.000Z</time>
      </trkpt>
      <trkpt lat="44.10905" lon="3.22766">
        <ele>755.59997558594</ele>
        <time>2020-10-02T15:15:22.000Z</time>
      </trkpt>
      <trkpt lat="44.109" lon="3.22772">
        <ele>756</ele>
        <time>2020-10-02T15:15:26.000Z</time>
      </trkpt>
      <trkpt lat="44.10897" lon="3.22777">
        <ele>756.40002441406</ele>
        <time>2020-10-02T15:15:31.000Z</time>
      </trkpt>
      <trkpt lat="44.1089" lon="3.22793">
        <ele>757</ele>
        <time>2020-10-02T15:15:47.000Z</time>
      </trkpt>
      <trkpt lat="44.10893" lon="3.22797">
        <ele>757</ele>
        <time>2020-10-02T15:15:59.000Z</time>
      </trkpt>
      <trkpt lat="44.10893" lon="3.22799">
        <ele>757</ele>
        <time>2020-10-02T15:16:12.000Z</time>
      </trkpt>
      <trkpt lat="44.10892" lon="3.228">
        <ele>757.20001220703</ele>
        <time>2020-10-02T15:16:34.000Z</time>
      </trkpt>
      <trkpt lat="44.10886" lon="3.22806">
        <ele>757.20001220703</ele>
        <time>2020-10-02T15:16:43.000Z</time>
      </trkpt>
      <trkpt lat="44.10876" lon="3.22824">
        <ele>756.79998779297</ele>
        <time>2020-10-02T15:16:50.000Z</time>
      </trkpt>
      <trkpt lat="44.10861" lon="3.22858">
        <ele>755.59997558594</ele>
        <time>2020-10-02T15:16:58.000Z</time>
      </trkpt>
      <trkpt lat="44.10859" lon="3.22863">
        <ele>755.40002441406</ele>
        <time>2020-10-02T15:16:59.000Z</time>
      </trkpt>
      <trkpt lat="44.10853" lon="3.2289">
        <ele>754.59997558594</ele>
        <time>2020-10-02T15:17:04.000Z</time>
      </trkpt>
      <trkpt lat="44.10853" lon="3.22896">
        <ele>754.40002441406</ele>
        <time>2020-10-02T15:17:05.000Z</time>
      </trkpt>
      <trkpt lat="44.10853" lon="3.22902">
        <ele>754</ele>
        <time>2020-10-02T15:17:06.000Z</time>
      </trkpt>
      <trkpt lat="44.10852" lon="3.22923">
        <ele>753.59997558594</ele>
        <time>2020-10-02T15:17:09.000Z</time>
      </trkpt>
      <trkpt lat="44.10852" lon="3.22951">
        <ele>752.20001220703</ele>
        <time>2020-10-02T15:17:13.000Z</time>
      </trkpt>
      <trkpt lat="44.10853" lon="3.22957">
        <ele>751.79998779297</ele>
        <time>2020-10-02T15:17:14.000Z</time>
      </trkpt>
      <trkpt lat="44.10853" lon="3.22973">
        <ele>751.20001220703</ele>
        <time>2020-10-02T15:17:17.000Z</time>
      </trkpt>
      <trkpt lat="44.10853" lon="3.22986">
        <ele>750.79998779297</ele>
        <time>2020-10-02T15:17:20.000Z</time>
      </trkpt>
      <trkpt lat="44.10849" lon="3.2301">
        <ele>750.79998779297</ele>
        <time>2020-10-02T15:17:27.000Z</time>
      </trkpt>
      <trkpt lat="44.10842" lon="3.23036">
        <ele>751.79998779297</ele>
        <time>2020-10-02T15:17:35.000Z</time>
      </trkpt>
      <trkpt lat="44.1084" lon="3.23051">
        <ele>752.40002441406</ele>
        <time>2020-10-02T15:17:39.000Z</time>
      </trkpt>
      <trkpt lat="44.10833" lon="3.23076">
        <ele>753</ele>
        <time>2020-10-02T15:17:46.000Z</time>
      </trkpt>
      <trkpt lat="44.10828" lon="3.23096">
        <ele>753.40002441406</ele>
        <time>2020-10-02T15:17:52.000Z</time>
      </trkpt>
      <trkpt lat="44.10825" lon="3.23108">
        <ele>753.79998779297</ele>
        <time>2020-10-02T15:17:56.000Z</time>
      </trkpt>
      <trkpt lat="44.10821" lon="3.23119">
        <ele>754.59997558594</ele>
        <time>2020-10-02T15:18:00.000Z</time>
      </trkpt>
      <trkpt lat="44.1082" lon="3.23129">
        <ele>755.79998779297</ele>
        <time>2020-10-02T15:18:04.000Z</time>
      </trkpt>
      <trkpt lat="44.1082" lon="3.23136">
        <ele>756.20001220703</ele>
        <time>2020-10-02T15:18:07.000Z</time>
      </trkpt>
      <trkpt lat="44.10819" lon="3.23144">
        <ele>756.79998779297</ele>
        <time>2020-10-02T15:18:10.000Z</time>
      </trkpt>
      <trkpt lat="44.10818" lon="3.23157">
        <ele>757.79998779297</ele>
        <time>2020-10-02T15:18:15.000Z</time>
      </trkpt>
      <trkpt lat="44.10818" lon="3.23161">
        <ele>758.20001220703</ele>
        <time>2020-10-02T15:18:17.000Z</time>
      </trkpt>
      <trkpt lat="44.10818" lon="3.23168">
        <ele>759.20001220703</ele>
        <time>2020-10-02T15:18:20.000Z</time>
      </trkpt>
      <trkpt lat="44.10815" lon="3.23175">
        <ele>760.20001220703</ele>
        <time>2020-10-02T15:18:24.000Z</time>
      </trkpt>
      <trkpt lat="44.10814" lon="3.23179">
        <ele>760.59997558594</ele>
        <time>2020-10-02T15:18:26.000Z</time>
      </trkpt>
      <trkpt lat="44.10813" lon="3.23185">
        <ele>761.20001220703</ele>
        <time>2020-10-02T15:18:29.000Z</time>
      </trkpt>
      <trkpt lat="44.10812" lon="3.23192">
        <ele>762.40002441406</ele>
        <time>2020-10-02T15:18:32.000Z</time>
      </trkpt>
      <trkpt lat="44.10813" lon="3.232">
        <ele>763.40002441406</ele>
        <time>2020-10-02T15:18:36.000Z</time>
      </trkpt>
      <trkpt lat="44.10813" lon="3.23202">
        <ele>763.59997558594</ele>
        <time>2020-10-02T15:18:37.000Z</time>
      </trkpt>
      <trkpt lat="44.10811" lon="3.23206">
        <ele>764.59997558594</ele>
        <time>2020-10-02T15:18:41.000Z</time>
      </trkpt>
      <trkpt lat="44.10809" lon="3.23206">
        <ele>765</ele>
        <time>2020-10-02T15:18:42.000Z</time>
      </trkpt>
      <trkpt lat="44.10807" lon="3.23208">
        <ele>765.79998779297</ele>
        <time>2020-10-02T15:18:44.000Z</time>
      </trkpt>
      <trkpt lat="44.10805" lon="3.23217">
        <ele>767</ele>
        <time>2020-10-02T15:18:48.000Z</time>
      </trkpt>
      <trkpt lat="44.10805" lon="3.23225">
        <ele>768</ele>
        <time>2020-10-02T15:18:52.000Z</time>
      </trkpt>
      <trkpt lat="44.10806" lon="3.23227">
        <ele>768.20001220703</ele>
        <time>2020-10-02T15:18:53.000Z</time>
      </trkpt>
      <trkpt lat="44.10806" lon="3.2323">
        <ele>768.40002441406</ele>
        <time>2020-10-02T15:18:54.000Z</time>
      </trkpt>
      <trkpt lat="44.10806" lon="3.23239">
        <ele>769.40002441406</ele>
        <time>2020-10-02T15:18:59.000Z</time>
      </trkpt>
      <trkpt lat="44.10804" lon="3.23242">
        <ele>770.20001220703</ele>
        <time>2020-10-02T15:19:01.000Z</time>
      </trkpt>
      <trkpt lat="44.10802" lon="3.23243">
        <ele>770.59997558594</ele>
        <time>2020-10-02T15:19:03.000Z</time>
      </trkpt>
      <trkpt lat="44.10801" lon="3.23246">
        <ele>771</ele>
        <time>2020-10-02T15:19:06.000Z</time>
      </trkpt>
      <trkpt lat="44.10801" lon="3.23251">
        <ele>771.59997558594</ele>
        <time>2020-10-02T15:19:10.000Z</time>
      </trkpt>
      <trkpt lat="44.10803" lon="3.23253">
        <ele>771.79998779297</ele>
        <time>2020-10-02T15:19:12.000Z</time>
      </trkpt>
      <trkpt lat="44.10804" lon="3.23258">
        <ele>772.79998779297</ele>
        <time>2020-10-02T15:19:17.000Z</time>
      </trkpt>
      <trkpt lat="44.10804" lon="3.23262">
        <ele>773.20001220703</ele>
        <time>2020-10-02T15:19:20.000Z</time>
      </trkpt>
      <trkpt lat="44.10804" lon="3.23267">
        <ele>773.59997558594</ele>
        <time>2020-10-02T15:19:22.000Z</time>
      </trkpt>
      <trkpt lat="44.10803" lon="3.23269">
        <ele>774</ele>
        <time>2020-10-02T15:19:23.000Z</time>
      </trkpt>
      <trkpt lat="44.10803" lon="3.23282">
        <ele>775</ele>
        <time>2020-10-02T15:19:28.000Z</time>
      </trkpt>
      <trkpt lat="44.10803" lon="3.23286">
        <ele>775.59997558594</ele>
        <time>2020-10-02T15:19:30.000Z</time>
      </trkpt>
      <trkpt lat="44.10801" lon="3.2329">
        <ele>776.20001220703</ele>
        <time>2020-10-02T15:19:34.000Z</time>
      </trkpt>
      <trkpt lat="44.10802" lon="3.23291">
        <ele>776.40002441406</ele>
        <time>2020-10-02T15:19:35.000Z</time>
      </trkpt>
      <trkpt lat="44.10804" lon="3.23295">
        <ele>777</ele>
        <time>2020-10-02T15:19:39.000Z</time>
      </trkpt>
      <trkpt lat="44.10805" lon="3.23297">
        <ele>777.20001220703</ele>
        <time>2020-10-02T15:19:41.000Z</time>
      </trkpt>
      <trkpt lat="44.10803" lon="3.23307">
        <ele>777.40002441406</ele>
        <time>2020-10-02T15:19:44.000Z</time>
      </trkpt>
      <trkpt lat="44.10803" lon="3.2331">
        <ele>777.40002441406</ele>
        <time>2020-10-02T15:19:45.000Z</time>
      </trkpt>
      <trkpt lat="44.10803" lon="3.23314">
        <ele>777.59997558594</ele>
        <time>2020-10-02T15:19:46.000Z</time>
      </trkpt>
      <trkpt lat="44.10803" lon="3.23333">
        <ele>778.40002441406</ele>
        <time>2020-10-02T15:19:53.000Z</time>
      </trkpt>
      <trkpt lat="44.10803" lon="3.23336">
        <ele>778.79998779297</ele>
        <time>2020-10-02T15:19:54.000Z</time>
      </trkpt>
      <trkpt lat="44.10806" lon="3.23349">
        <ele>779.59997558594</ele>
        <time>2020-10-02T15:19:59.000Z</time>
      </trkpt>
      <trkpt lat="44.10809" lon="3.23358">
        <ele>780.40002441406</ele>
        <time>2020-10-02T15:20:03.000Z</time>
      </trkpt>
      <trkpt lat="44.10811" lon="3.23362">
        <ele>780.79998779297</ele>
        <time>2020-10-02T15:20:05.000Z</time>
      </trkpt>
      <trkpt lat="44.10811" lon="3.23379">
        <ele>781.20001220703</ele>
        <time>2020-10-02T15:20:10.000Z</time>
      </trkpt>
      <trkpt lat="44.1081" lon="3.23381">
        <ele>781.40002441406</ele>
        <time>2020-10-02T15:20:11.000Z</time>
      </trkpt>
      <trkpt lat="44.10808" lon="3.23387">
        <ele>781.79998779297</ele>
        <time>2020-10-02T15:20:13.000Z</time>
      </trkpt>
      <trkpt lat="44.10807" lon="3.23389">
        <ele>781.79998779297</ele>
        <time>2020-10-02T15:20:14.000Z</time>
      </trkpt>
      <trkpt lat="44.10808" lon="3.23395">
        <ele>782</ele>
        <time>2020-10-02T15:20:16.000Z</time>
      </trkpt>
      <trkpt lat="44.10806" lon="3.23407">
        <ele>782.79998779297</ele>
        <time>2020-10-02T15:20:21.000Z</time>
      </trkpt>
      <trkpt lat="44.10805" lon="3.23407">
        <ele>783.59997558594</ele>
        <time>2020-10-02T15:20:24.000Z</time>
      </trkpt>
      <trkpt lat="44.10804" lon="3.23408">
        <ele>784</ele>
        <time>2020-10-02T15:20:26.000Z</time>
      </trkpt>
      <trkpt lat="44.10805" lon="3.23415">
        <ele>784.59997558594</ele>
        <time>2020-10-02T15:20:29.000Z</time>
      </trkpt>
      <trkpt lat="44.10805" lon="3.23422">
        <ele>785.20001220703</ele>
        <time>2020-10-02T15:20:31.000Z</time>
      </trkpt>
      <trkpt lat="44.10805" lon="3.23425">
        <ele>785.40002441406</ele>
        <time>2020-10-02T15:20:32.000Z</time>
      </trkpt>
      <trkpt lat="44.10805" lon="3.23439">
        <ele>786.20001220703</ele>
        <time>2020-10-02T15:20:36.000Z</time>
      </trkpt>
      <trkpt lat="44.10807" lon="3.23452">
        <ele>787</ele>
        <time>2020-10-02T15:20:41.000Z</time>
      </trkpt>
      <trkpt lat="44.10806" lon="3.23457">
        <ele>787.40002441406</ele>
        <time>2020-10-02T15:20:43.000Z</time>
      </trkpt>
      <trkpt lat="44.10803" lon="3.23466">
        <ele>788</ele>
        <time>2020-10-02T15:20:47.000Z</time>
      </trkpt>
      <trkpt lat="44.10803" lon="3.23474">
        <ele>788.40002441406</ele>
        <time>2020-10-02T15:20:50.000Z</time>
      </trkpt>
      <trkpt lat="44.10806" lon="3.23483">
        <ele>789.40002441406</ele>
        <time>2020-10-02T15:20:55.000Z</time>
      </trkpt>
      <trkpt lat="44.1081" lon="3.23481">
        <ele>790.20001220703</ele>
        <time>2020-10-02T15:21:01.000Z</time>
      </trkpt>
      <trkpt lat="44.10808" lon="3.23475">
        <ele>790.20001220703</ele>
        <time>2020-10-02T15:21:09.000Z</time>
      </trkpt>
      <trkpt lat="44.10809" lon="3.23477">
        <ele>790.20001220703</ele>
        <time>2020-10-02T15:21:14.000Z</time>
      </trkpt>
      <trkpt lat="44.10808" lon="3.23477">
        <ele>790</ele>
        <time>2020-10-02T15:21:25.000Z</time>
      </trkpt>
      <trkpt lat="44.10811" lon="3.23485">
        <ele>790</ele>
        <time>2020-10-02T15:21:38.000Z</time>
      </trkpt>
      <trkpt lat="44.10812" lon="3.23485">
        <ele>790</ele>
        <time>2020-10-02T15:21:53.000Z</time>
      </trkpt>
      <trkpt lat="44.10816" lon="3.23485">
        <ele>789.79998779297</ele>
        <time>2020-10-02T15:22:06.000Z</time>
      </trkpt>
      <trkpt lat="44.10812" lon="3.23486">
        <ele>789.59997558594</ele>
        <time>2020-10-02T15:22:19.000Z</time>
      </trkpt>
      <trkpt lat="44.10811" lon="3.23476">
        <ele>789.59997558594</ele>
        <time>2020-10-02T15:22:31.000Z</time>
      </trkpt>
      <trkpt lat="44.10811" lon="3.23474">
        <ele>789.40002441406</ele>
        <time>2020-10-02T15:22:47.000Z</time>
      </trkpt>
      <trkpt lat="44.1081" lon="3.23474">
        <ele>789.20001220703</ele>
        <time>2020-10-02T15:23:03.000Z</time>
      </trkpt>
      <trkpt lat="44.10811" lon="3.23473">
        <ele>788.79998779297</ele>
        <time>2020-10-02T15:23:11.000Z</time>
      </trkpt>
      <trkpt lat="44.10817" lon="3.23473">
        <ele>788.59997558594</ele>
        <time>2020-10-02T15:23:18.000Z</time>
      </trkpt>
      <trkpt lat="44.10818" lon="3.23474">
        <ele>788.59997558594</ele>
        <time>2020-10-02T15:23:19.000Z</time>
      </trkpt>
      <trkpt lat="44.10832" lon="3.23492">
        <ele>788.40002441406</ele>
        <time>2020-10-02T15:23:24.000Z</time>
      </trkpt>
      <trkpt lat="44.10838" lon="3.23502">
        <ele>788.40002441406</ele>
        <time>2020-10-02T15:23:26.000Z</time>
      </trkpt>
      <trkpt lat="44.10851" lon="3.2352">
        <ele>787.79998779297</ele>
        <time>2020-10-02T15:23:30.000Z</time>
      </trkpt>
      <trkpt lat="44.10858" lon="3.23527">
        <ele>787.20001220703</ele>
        <time>2020-10-02T15:23:32.000Z</time>
      </trkpt>
      <trkpt lat="44.10873" lon="3.23527">
        <ele>786.59997558594</ele>
        <time>2020-10-02T15:23:36.000Z</time>
      </trkpt>
      <trkpt lat="44.10876" lon="3.23527">
        <ele>786.79998779297</ele>
        <time>2020-10-02T15:23:37.000Z</time>
      </trkpt>
      <trkpt lat="44.10899" lon="3.23532">
        <ele>786.20001220703</ele>
        <time>2020-10-02T15:23:43.000Z</time>
      </trkpt>
      <trkpt lat="44.10914" lon="3.23533">
        <ele>785.79998779297</ele>
        <time>2020-10-02T15:23:46.000Z</time>
      </trkpt>
      <trkpt lat="44.10926" lon="3.23531">
        <ele>785.20001220703</ele>
        <time>2020-10-02T15:23:48.000Z</time>
      </trkpt>
      <trkpt lat="44.1093" lon="3.23531">
        <ele>784.79998779297</ele>
        <time>2020-10-02T15:23:49.000Z</time>
      </trkpt>
      <trkpt lat="44.10935" lon="3.23532">
        <ele>784.20001220703</ele>
        <time>2020-10-02T15:23:51.000Z</time>
      </trkpt>
      <trkpt lat="44.10936" lon="3.23534">
        <ele>783.59997558594</ele>
        <time>2020-10-02T15:23:52.000Z</time>
      </trkpt>
      <trkpt lat="44.10936" lon="3.23535">
        <ele>782.40002441406</ele>
        <time>2020-10-02T15:23:54.000Z</time>
      </trkpt>
      <trkpt lat="44.10937" lon="3.23535">
        <ele>782</ele>
        <time>2020-10-02T15:23:55.000Z</time>
      </trkpt>
      <trkpt lat="44.10937" lon="3.23535">
        <ele>781.20001220703</ele>
        <time>2020-10-02T15:23:57.000Z</time>
      </trkpt>
      <trkpt lat="44.10937" lon="3.23535">
        <ele>780.20001220703</ele>
        <time>2020-10-02T15:24:02.000Z</time>
      </trkpt>
      <trkpt lat="44.10937" lon="3.23535">
        <ele>780</ele>
        <time>2020-10-02T15:24:09.000Z</time>
      </trkpt>
      <trkpt lat="44.10937" lon="3.23535">
        <ele>780</ele>
        <time>2020-10-02T15:24:39.000Z</time>
      </trkpt>
      <trkpt lat="44.10937" lon="3.23535">
        <ele>779.79998779297</ele>
        <time>2020-10-02T15:25:00.000Z</time>
      </trkpt>
      <trkpt lat="44.10937" lon="3.23534">
        <ele>779.79998779297</ele>
        <time>2020-10-02T15:25:29.000Z</time>
      </trkpt>
      <trkpt lat="44.10937" lon="3.23535">
        <ele>779.79998779297</ele>
        <time>2020-10-02T15:26:02.000Z</time>
      </trkpt>
      <trkpt lat="44.10938" lon="3.23537">
        <ele>780</ele>
        <time>2020-10-02T15:26:33.000Z</time>
      </trkpt>
      <trkpt lat="44.10941" lon="3.23544">
        <ele>780</ele>
        <time>2020-10-02T15:26:45.000Z</time>
      </trkpt>
      <trkpt lat="44.10946" lon="3.23562">
        <ele>779.79998779297</ele>
        <time>2020-10-02T15:26:51.000Z</time>
      </trkpt>
      <trkpt lat="44.10951" lon="3.2359">
        <ele>779.40002441406</ele>
        <time>2020-10-02T15:26:56.000Z</time>
      </trkpt>
      <trkpt lat="44.10952" lon="3.23596">
        <ele>779.20001220703</ele>
        <time>2020-10-02T15:26:57.000Z</time>
      </trkpt>
      <trkpt lat="44.10955" lon="3.2362">
        <ele>778.20001220703</ele>
        <time>2020-10-02T15:27:01.000Z</time>
      </trkpt>
      <trkpt lat="44.10958" lon="3.23642">
        <ele>777</ele>
        <time>2020-10-02T15:27:05.000Z</time>
      </trkpt>
      <trkpt lat="44.10962" lon="3.23666">
        <ele>776</ele>
        <time>2020-10-02T15:27:09.000Z</time>
      </trkpt>
      <trkpt lat="44.10962" lon="3.23676">
        <ele>775.59997558594</ele>
        <time>2020-10-02T15:27:11.000Z</time>
      </trkpt>
      <trkpt lat="44.10965" lon="3.23707">
        <ele>775.40002441406</ele>
        <time>2020-10-02T15:27:17.000Z</time>
      </trkpt>
      <trkpt lat="44.10958" lon="3.23735">
        <ele>775.59997558594</ele>
        <time>2020-10-02T15:27:25.000Z</time>
      </trkpt>
      <trkpt lat="44.1095" lon="3.23776">
        <ele>776.20001220703</ele>
        <time>2020-10-02T15:27:35.000Z</time>
      </trkpt>
      <trkpt lat="44.10947" lon="3.23806">
        <ele>777.20001220703</ele>
        <time>2020-10-02T15:27:44.000Z</time>
      </trkpt>
      <trkpt lat="44.10946" lon="3.23809">
        <ele>777.40002441406</ele>
        <time>2020-10-02T15:27:45.000Z</time>
      </trkpt>
      <trkpt lat="44.10944" lon="3.23827">
        <ele>778.40002441406</ele>
        <time>2020-10-02T15:27:51.000Z</time>
      </trkpt>
      <trkpt lat="44.10942" lon="3.23841">
        <ele>779.20001220703</ele>
        <time>2020-10-02T15:27:56.000Z</time>
      </trkpt>
      <trkpt lat="44.10942" lon="3.23844">
        <ele>779.40002441406</ele>
        <time>2020-10-02T15:27:57.000Z</time>
      </trkpt>
      <trkpt lat="44.10941" lon="3.23865">
        <ele>780.40002441406</ele>
        <time>2020-10-02T15:28:04.000Z</time>
      </trkpt>
      <trkpt lat="44.10939" lon="3.23874">
        <ele>781.20001220703</ele>
        <time>2020-10-02T15:28:07.000Z</time>
      </trkpt>
      <trkpt lat="44.10938" lon="3.23884">
        <ele>781.59997558594</ele>
        <time>2020-10-02T15:28:10.000Z</time>
      </trkpt>
      <trkpt lat="44.10932" lon="3.23916">
        <ele>782.79998779297</ele>
        <time>2020-10-02T15:28:20.000Z</time>
      </trkpt>
      <trkpt lat="44.10931" lon="3.23919">
        <ele>783</ele>
        <time>2020-10-02T15:28:21.000Z</time>
      </trkpt>
      <trkpt lat="44.10922" lon="3.23944">
        <ele>783.59997558594</ele>
        <time>2020-10-02T15:28:30.000Z</time>
      </trkpt>
      <trkpt lat="44.10916" lon="3.2396">
        <ele>784</ele>
        <time>2020-10-02T15:28:35.000Z</time>
      </trkpt>
      <trkpt lat="44.10911" lon="3.23974">
        <ele>784.20001220703</ele>
        <time>2020-10-02T15:28:39.000Z</time>
      </trkpt>
      <trkpt lat="44.10902" lon="3.24007">
        <ele>784.20001220703</ele>
        <time>2020-10-02T15:28:48.000Z</time>
      </trkpt>
      <trkpt lat="44.10907" lon="3.24027">
        <ele>784.20001220703</ele>
        <time>2020-10-02T15:28:53.000Z</time>
      </trkpt>
      <trkpt lat="44.10916" lon="3.2406">
        <ele>783.59997558594</ele>
        <time>2020-10-02T15:29:00.000Z</time>
      </trkpt>
      <trkpt lat="44.10922" lon="3.24089">
        <ele>782.79998779297</ele>
        <time>2020-10-02T15:29:06.000Z</time>
      </trkpt>
      <trkpt lat="44.10923" lon="3.24119">
        <ele>782.59997558594</ele>
        <time>2020-10-02T15:29:12.000Z</time>
      </trkpt>
      <trkpt lat="44.10917" lon="3.24146">
        <ele>782.40002441406</ele>
        <time>2020-10-02T15:29:16.000Z</time>
      </trkpt>
      <trkpt lat="44.10914" lon="3.24153">
        <ele>782.20001220703</ele>
        <time>2020-10-02T15:29:17.000Z</time>
      </trkpt>
      <trkpt lat="44.10908" lon="3.24171">
        <ele>781.79998779297</ele>
        <time>2020-10-02T15:29:19.000Z</time>
      </trkpt>
      <trkpt lat="44.10905" lon="3.24189">
        <ele>781.20001220703</ele>
        <time>2020-10-02T15:29:21.000Z</time>
      </trkpt>
      <trkpt lat="44.10904" lon="3.24198">
        <ele>780.59997558594</ele>
        <time>2020-10-02T15:29:22.000Z</time>
      </trkpt>
      <trkpt lat="44.10903" lon="3.24206">
        <ele>780</ele>
        <time>2020-10-02T15:29:23.000Z</time>
      </trkpt>
      <trkpt lat="44.10903" lon="3.24214">
        <ele>779</ele>
        <time>2020-10-02T15:29:24.000Z</time>
      </trkpt>
      <trkpt lat="44.10903" lon="3.2422">
        <ele>778</ele>
        <time>2020-10-02T15:29:25.000Z</time>
      </trkpt>
      <trkpt lat="44.10904" lon="3.24225">
        <ele>777.20001220703</ele>
        <time>2020-10-02T15:29:26.000Z</time>
      </trkpt>
      <trkpt lat="44.10904" lon="3.24229">
        <ele>776.59997558594</ele>
        <time>2020-10-02T15:29:27.000Z</time>
      </trkpt>
      <trkpt lat="44.10906" lon="3.24248">
        <ele>775.59997558594</ele>
        <time>2020-10-02T15:29:32.000Z</time>
      </trkpt>
      <trkpt lat="44.10904" lon="3.24256">
        <ele>775.40002441406</ele>
        <time>2020-10-02T15:29:34.000Z</time>
      </trkpt>
      <trkpt lat="44.10904" lon="3.24275">
        <ele>775.20001220703</ele>
        <time>2020-10-02T15:29:38.000Z</time>
      </trkpt>
      <trkpt lat="44.10906" lon="3.24278">
        <ele>775.20001220703</ele>
        <time>2020-10-02T15:29:39.000Z</time>
      </trkpt>
      <trkpt lat="44.10911" lon="3.24282">
        <ele>775</ele>
        <time>2020-10-02T15:29:41.000Z</time>
      </trkpt>
      <trkpt lat="44.10922" lon="3.24283">
        <ele>774.40002441406</ele>
        <time>2020-10-02T15:29:44.000Z</time>
      </trkpt>
      <trkpt lat="44.10931" lon="3.24285">
        <ele>773.79998779297</ele>
        <time>2020-10-02T15:29:47.000Z</time>
      </trkpt>
      <trkpt lat="44.1095" lon="3.24301">
        <ele>773.59997558594</ele>
        <time>2020-10-02T15:29:54.000Z</time>
      </trkpt>
      <trkpt lat="44.10971" lon="3.24308">
        <ele>774</ele>
        <time>2020-10-02T15:30:01.000Z</time>
      </trkpt>
      <trkpt lat="44.10991" lon="3.24296">
        <ele>775.20001220703</ele>
        <time>2020-10-02T15:30:09.000Z</time>
      </trkpt>
      <trkpt lat="44.10996" lon="3.24293">
        <ele>775.59997558594</ele>
        <time>2020-10-02T15:30:11.000Z</time>
      </trkpt>
      <trkpt lat="44.11008" lon="3.24285">
        <ele>776.79998779297</ele>
        <time>2020-10-02T15:30:17.000Z</time>
      </trkpt>
      <trkpt lat="44.11012" lon="3.24283">
        <ele>777.20001220703</ele>
        <time>2020-10-02T15:30:19.000Z</time>
      </trkpt>
      <trkpt lat="44.11017" lon="3.24281">
        <ele>778</ele>
        <time>2020-10-02T15:30:22.000Z</time>
      </trkpt>
      <trkpt lat="44.1103" lon="3.24277">
        <ele>779.20001220703</ele>
        <time>2020-10-02T15:30:28.000Z</time>
      </trkpt>
      <trkpt lat="44.11032" lon="3.24277">
        <ele>779.40002441406</ele>
        <time>2020-10-02T15:30:29.000Z</time>
      </trkpt>
      <trkpt lat="44.11038" lon="3.24275">
        <ele>780.20001220703</ele>
        <time>2020-10-02T15:30:32.000Z</time>
      </trkpt>
      <trkpt lat="44.11054" lon="3.24269">
        <ele>781.40002441406</ele>
        <time>2020-10-02T15:30:40.000Z</time>
      </trkpt>
      <trkpt lat="44.11056" lon="3.24268">
        <ele>781.40002441406</ele>
        <time>2020-10-02T15:30:41.000Z</time>
      </trkpt>
      <trkpt lat="44.1107" lon="3.2426">
        <ele>782</ele>
        <time>2020-10-02T15:30:48.000Z</time>
      </trkpt>
      <trkpt lat="44.11087" lon="3.24257">
        <ele>782</ele>
        <time>2020-10-02T15:30:54.000Z</time>
      </trkpt>
      <trkpt lat="44.1111" lon="3.24264">
        <ele>782</ele>
        <time>2020-10-02T15:31:00.000Z</time>
      </trkpt>
      <trkpt lat="44.1112" lon="3.2427">
        <ele>781.20001220703</ele>
        <time>2020-10-02T15:31:04.000Z</time>
      </trkpt>
      <trkpt lat="44.11123" lon="3.24271">
        <ele>780.40002441406</ele>
        <time>2020-10-02T15:31:06.000Z</time>
      </trkpt>
      <trkpt lat="44.11124" lon="3.24271">
        <ele>779.20001220703</ele>
        <time>2020-10-02T15:31:09.000Z</time>
      </trkpt>
      <trkpt lat="44.11124" lon="3.24271">
        <ele>778</ele>
        <time>2020-10-02T15:31:12.000Z</time>
      </trkpt>
      <trkpt lat="44.11124" lon="3.2427">
        <ele>777.20001220703</ele>
        <time>2020-10-02T15:31:27.000Z</time>
      </trkpt>
      <trkpt lat="44.11124" lon="3.2427">
        <ele>777.20001220703</ele>
        <time>2020-10-02T15:31:28.000Z</time>
      </trkpt>
      <trkpt lat="44.11125" lon="3.24268">
        <ele>777</ele>
        <time>2020-10-02T15:31:53.000Z</time>
      </trkpt>
      <trkpt lat="44.11132" lon="3.24275">
        <ele>776.79998779297</ele>
        <time>2020-10-02T15:32:01.000Z</time>
      </trkpt>
      <trkpt lat="44.11152" lon="3.24282">
        <ele>776.20001220703</ele>
        <time>2020-10-02T15:32:06.000Z</time>
      </trkpt>
      <trkpt lat="44.11159" lon="3.24283">
        <ele>775</ele>
        <time>2020-10-02T15:32:08.000Z</time>
      </trkpt>
      <trkpt lat="44.11168" lon="3.24288">
        <ele>773.59997558594</ele>
        <time>2020-10-02T15:32:11.000Z</time>
      </trkpt>
      <trkpt lat="44.1117" lon="3.2429">
        <ele>772.59997558594</ele>
        <time>2020-10-02T15:32:12.000Z</time>
      </trkpt>
      <trkpt lat="44.11172" lon="3.24292">
        <ele>771.40002441406</ele>
        <time>2020-10-02T15:32:13.000Z</time>
      </trkpt>
      <trkpt lat="44.11173" lon="3.24296">
        <ele>770</ele>
        <time>2020-10-02T15:32:14.000Z</time>
      </trkpt>
      <trkpt lat="44.11178" lon="3.24305">
        <ele>768.20001220703</ele>
        <time>2020-10-02T15:32:16.000Z</time>
      </trkpt>
      <trkpt lat="44.11181" lon="3.2431">
        <ele>767.20001220703</ele>
        <time>2020-10-02T15:32:17.000Z</time>
      </trkpt>
      <trkpt lat="44.11184" lon="3.24313">
        <ele>765.59997558594</ele>
        <time>2020-10-02T15:32:18.000Z</time>
      </trkpt>
      <trkpt lat="44.11186" lon="3.24316">
        <ele>764.20001220703</ele>
        <time>2020-10-02T15:32:19.000Z</time>
      </trkpt>
      <trkpt lat="44.11187" lon="3.24318">
        <ele>763.20001220703</ele>
        <time>2020-10-02T15:32:20.000Z</time>
      </trkpt>
      <trkpt lat="44.11191" lon="3.24318">
        <ele>761.40002441406</ele>
        <time>2020-10-02T15:32:21.000Z</time>
      </trkpt>
      <trkpt lat="44.11194" lon="3.24316">
        <ele>760</ele>
        <time>2020-10-02T15:32:22.000Z</time>
      </trkpt>
      <trkpt lat="44.11197" lon="3.24314">
        <ele>758.20001220703</ele>
        <time>2020-10-02T15:32:23.000Z</time>
      </trkpt>
      <trkpt lat="44.112" lon="3.24311">
        <ele>756.59997558594</ele>
        <time>2020-10-02T15:32:24.000Z</time>
      </trkpt>
      <trkpt lat="44.11204" lon="3.24307">
        <ele>755.20001220703</ele>
        <time>2020-10-02T15:32:25.000Z</time>
      </trkpt>
      <trkpt lat="44.11207" lon="3.24303">
        <ele>753.79998779297</ele>
        <time>2020-10-02T15:32:26.000Z</time>
      </trkpt>
      <trkpt lat="44.11211" lon="3.24299">
        <ele>751.59997558594</ele>
        <time>2020-10-02T15:32:27.000Z</time>
      </trkpt>
      <trkpt lat="44.11221" lon="3.24288">
        <ele>749.79998779297</ele>
        <time>2020-10-02T15:32:29.000Z</time>
      </trkpt>
      <trkpt lat="44.11226" lon="3.24282">
        <ele>749.20001220703</ele>
        <time>2020-10-02T15:32:30.000Z</time>
      </trkpt>
      <trkpt lat="44.11232" lon="3.24276">
        <ele>748.40002441406</ele>
        <time>2020-10-02T15:32:31.000Z</time>
      </trkpt>
      <trkpt lat="44.11246" lon="3.24263">
        <ele>747</ele>
        <time>2020-10-02T15:32:34.000Z</time>
      </trkpt>
      <trkpt lat="44.1125" lon="3.2426">
        <ele>746.20001220703</ele>
        <time>2020-10-02T15:32:35.000Z</time>
      </trkpt>
      <trkpt lat="44.11254" lon="3.24256">
        <ele>745.79998779297</ele>
        <time>2020-10-02T15:32:36.000Z</time>
      </trkpt>
      <trkpt lat="44.11266" lon="3.24248">
        <ele>745</ele>
        <time>2020-10-02T15:32:40.000Z</time>
      </trkpt>
      <trkpt lat="44.11288" lon="3.24231">
        <ele>744.59997558594</ele>
        <time>2020-10-02T15:32:45.000Z</time>
      </trkpt>
      <trkpt lat="44.11293" lon="3.24226">
        <ele>743</ele>
        <time>2020-10-02T15:32:49.000Z</time>
      </trkpt>
      <trkpt lat="44.11294" lon="3.24226">
        <ele>741.20001220703</ele>
        <time>2020-10-02T15:32:51.000Z</time>
      </trkpt>
      <trkpt lat="44.11295" lon="3.24226">
        <ele>740.20001220703</ele>
        <time>2020-10-02T15:32:52.000Z</time>
      </trkpt>
      <trkpt lat="44.11301" lon="3.24223">
        <ele>738.20001220703</ele>
        <time>2020-10-02T15:32:54.000Z</time>
      </trkpt>
      <trkpt lat="44.11309" lon="3.24218">
        <ele>736.20001220703</ele>
        <time>2020-10-02T15:32:56.000Z</time>
      </trkpt>
      <trkpt lat="44.11319" lon="3.24211">
        <ele>735</ele>
        <time>2020-10-02T15:32:58.000Z</time>
      </trkpt>
      <trkpt lat="44.11327" lon="3.24206">
        <ele>734</ele>
        <time>2020-10-02T15:33:00.000Z</time>
      </trkpt>
      <trkpt lat="44.1133" lon="3.24204">
        <ele>732.40002441406</ele>
        <time>2020-10-02T15:33:02.000Z</time>
      </trkpt>
      <trkpt lat="44.11331" lon="3.24208">
        <ele>730.40002441406</ele>
        <time>2020-10-02T15:33:04.000Z</time>
      </trkpt>
      <trkpt lat="44.11331" lon="3.24215">
        <ele>728.79998779297</ele>
        <time>2020-10-02T15:33:06.000Z</time>
      </trkpt>
      <trkpt lat="44.11329" lon="3.24218">
        <ele>727.59997558594</ele>
        <time>2020-10-02T15:33:07.000Z</time>
      </trkpt>
      <trkpt lat="44.11329" lon="3.24221">
        <ele>726.79998779297</ele>
        <time>2020-10-02T15:33:08.000Z</time>
      </trkpt>
      <trkpt lat="44.11329" lon="3.24224">
        <ele>726.20001220703</ele>
        <time>2020-10-02T15:33:09.000Z</time>
      </trkpt>
      <trkpt lat="44.11329" lon="3.24228">
        <ele>725.20001220703</ele>
        <time>2020-10-02T15:33:11.000Z</time>
      </trkpt>
      <trkpt lat="44.11331" lon="3.24227">
        <ele>723.79998779297</ele>
        <time>2020-10-02T15:33:13.000Z</time>
      </trkpt>
      <trkpt lat="44.11336" lon="3.24224">
        <ele>722</ele>
        <time>2020-10-02T15:33:15.000Z</time>
      </trkpt>
      <trkpt lat="44.11343" lon="3.24217">
        <ele>720.40002441406</ele>
        <time>2020-10-02T15:33:17.000Z</time>
      </trkpt>
      <trkpt lat="44.11348" lon="3.24212">
        <ele>719.20001220703</ele>
        <time>2020-10-02T15:33:19.000Z</time>
      </trkpt>
      <trkpt lat="44.1135" lon="3.2421">
        <ele>718.20001220703</ele>
        <time>2020-10-02T15:33:20.000Z</time>
      </trkpt>
      <trkpt lat="44.11353" lon="3.24209">
        <ele>717.40002441406</ele>
        <time>2020-10-02T15:33:21.000Z</time>
      </trkpt>
      <trkpt lat="44.11356" lon="3.24209">
        <ele>715.59997558594</ele>
        <time>2020-10-02T15:33:23.000Z</time>
      </trkpt>
      <trkpt lat="44.11355" lon="3.24209">
        <ele>714</ele>
        <time>2020-10-02T15:33:24.000Z</time>
      </trkpt>
      <trkpt lat="44.11355" lon="3.24211">
        <ele>713.40002441406</ele>
        <time>2020-10-02T15:33:25.000Z</time>
      </trkpt>
      <trkpt lat="44.11354" lon="3.24213">
        <ele>712.59997558594</ele>
        <time>2020-10-02T15:33:26.000Z</time>
      </trkpt>
      <trkpt lat="44.11352" lon="3.24219">
        <ele>711.40002441406</ele>
        <time>2020-10-02T15:33:28.000Z</time>
      </trkpt>
      <trkpt lat="44.1135" lon="3.24223">
        <ele>710.79998779297</ele>
        <time>2020-10-02T15:33:29.000Z</time>
      </trkpt>
      <trkpt lat="44.11349" lon="3.24227">
        <ele>710.20001220703</ele>
        <time>2020-10-02T15:33:30.000Z</time>
      </trkpt>
      <trkpt lat="44.11345" lon="3.24237">
        <ele>709.20001220703</ele>
        <time>2020-10-02T15:33:33.000Z</time>
      </trkpt>
      <trkpt lat="44.11343" lon="3.24241">
        <ele>707.79998779297</ele>
        <time>2020-10-02T15:33:35.000Z</time>
      </trkpt>
      <trkpt lat="44.11341" lon="3.24242">
        <ele>707.40002441406</ele>
        <time>2020-10-02T15:33:36.000Z</time>
      </trkpt>
      <trkpt lat="44.1134" lon="3.24243">
        <ele>706.40002441406</ele>
        <time>2020-10-02T15:33:38.000Z</time>
      </trkpt>
      <trkpt lat="44.1134" lon="3.24243">
        <ele>705</ele>
        <time>2020-10-02T15:33:40.000Z</time>
      </trkpt>
      <trkpt lat="44.11342" lon="3.24243">
        <ele>703.79998779297</ele>
        <time>2020-10-02T15:33:42.000Z</time>
      </trkpt>
      <trkpt lat="44.11344" lon="3.24244">
        <ele>702.79998779297</ele>
        <time>2020-10-02T15:33:45.000Z</time>
      </trkpt>
      <trkpt lat="44.11344" lon="3.24246">
        <ele>702.59997558594</ele>
        <time>2020-10-02T15:33:47.000Z</time>
      </trkpt>
      <trkpt lat="44.11343" lon="3.24248">
        <ele>702.59997558594</ele>
        <time>2020-10-02T15:33:48.000Z</time>
      </trkpt>
      <trkpt lat="44.11343" lon="3.2425">
        <ele>702.59997558594</ele>
        <time>2020-10-02T15:33:52.000Z</time>
      </trkpt>
      <trkpt lat="44.11344" lon="3.24246">
        <ele>702.40002441406</ele>
        <time>2020-10-02T15:33:56.000Z</time>
      </trkpt>
      <trkpt lat="44.11346" lon="3.24245">
        <ele>702.40002441406</ele>
        <time>2020-10-02T15:33:57.000Z</time>
      </trkpt>
      <trkpt lat="44.11357" lon="3.24232">
        <ele>702.20001220703</ele>
        <time>2020-10-02T15:34:02.000Z</time>
      </trkpt>
      <trkpt lat="44.11359" lon="3.24229">
        <ele>701.79998779297</ele>
        <time>2020-10-02T15:34:03.000Z</time>
      </trkpt>
      <trkpt lat="44.11363" lon="3.24223">
        <ele>700.59997558594</ele>
        <time>2020-10-02T15:34:05.000Z</time>
      </trkpt>
      <trkpt lat="44.11366" lon="3.2422">
        <ele>699.40002441406</ele>
        <time>2020-10-02T15:34:07.000Z</time>
      </trkpt>
      <trkpt lat="44.11365" lon="3.2422">
        <ele>698.79998779297</ele>
        <time>2020-10-02T15:34:08.000Z</time>
      </trkpt>
      <trkpt lat="44.11365" lon="3.2422">
        <ele>698</ele>
        <time>2020-10-02T15:34:09.000Z</time>
      </trkpt>
      <trkpt lat="44.11364" lon="3.24221">
        <ele>697.40002441406</ele>
        <time>2020-10-02T15:34:10.000Z</time>
      </trkpt>
      <trkpt lat="44.11364" lon="3.24223">
        <ele>697</ele>
        <time>2020-10-02T15:34:11.000Z</time>
      </trkpt>
      <trkpt lat="44.11362" lon="3.24227">
        <ele>696.20001220703</ele>
        <time>2020-10-02T15:34:13.000Z</time>
      </trkpt>
      <trkpt lat="44.1136" lon="3.24231">
        <ele>695.79998779297</ele>
        <time>2020-10-02T15:34:14.000Z</time>
      </trkpt>
      <trkpt lat="44.11357" lon="3.24243">
        <ele>694.59997558594</ele>
        <time>2020-10-02T15:34:17.000Z</time>
      </trkpt>
      <trkpt lat="44.11352" lon="3.24252">
        <ele>694.20001220703</ele>
        <time>2020-10-02T15:34:19.000Z</time>
      </trkpt>
      <trkpt lat="44.11347" lon="3.24258">
        <ele>693.40002441406</ele>
        <time>2020-10-02T15:34:21.000Z</time>
      </trkpt>
      <trkpt lat="44.11346" lon="3.24262">
        <ele>692.40002441406</ele>
        <time>2020-10-02T15:34:23.000Z</time>
      </trkpt>
      <trkpt lat="44.11347" lon="3.24263">
        <ele>691.79998779297</ele>
        <time>2020-10-02T15:34:24.000Z</time>
      </trkpt>
      <trkpt lat="44.11349" lon="3.24263">
        <ele>691</ele>
        <time>2020-10-02T15:34:26.000Z</time>
      </trkpt>
      <trkpt lat="44.11349" lon="3.24262">
        <ele>690.20001220703</ele>
        <time>2020-10-02T15:34:28.000Z</time>
      </trkpt>
      <trkpt lat="44.11352" lon="3.2426">
        <ele>689.59997558594</ele>
        <time>2020-10-02T15:34:29.000Z</time>
      </trkpt>
      <trkpt lat="44.11356" lon="3.24255">
        <ele>688</ele>
        <time>2020-10-02T15:34:31.000Z</time>
      </trkpt>
      <trkpt lat="44.11361" lon="3.24249">
        <ele>687</ele>
        <time>2020-10-02T15:34:33.000Z</time>
      </trkpt>
      <trkpt lat="44.11363" lon="3.24244">
        <ele>686.40002441406</ele>
        <time>2020-10-02T15:34:34.000Z</time>
      </trkpt>
      <trkpt lat="44.11367" lon="3.24238">
        <ele>685.79998779297</ele>
        <time>2020-10-02T15:34:36.000Z</time>
      </trkpt>
      <trkpt lat="44.11371" lon="3.24234">
        <ele>684.79998779297</ele>
        <time>2020-10-02T15:34:38.000Z</time>
      </trkpt>
      <trkpt lat="44.11373" lon="3.24232">
        <ele>684.20001220703</ele>
        <time>2020-10-02T15:34:39.000Z</time>
      </trkpt>
      <trkpt lat="44.11373" lon="3.24233">
        <ele>683.20001220703</ele>
        <time>2020-10-02T15:34:41.000Z</time>
      </trkpt>
      <trkpt lat="44.11372" lon="3.24234">
        <ele>682</ele>
        <time>2020-10-02T15:34:42.000Z</time>
      </trkpt>
      <trkpt lat="44.1137" lon="3.24236">
        <ele>681.40002441406</ele>
        <time>2020-10-02T15:34:43.000Z</time>
      </trkpt>
      <trkpt lat="44.11368" lon="3.24237">
        <ele>680.40002441406</ele>
        <time>2020-10-02T15:34:44.000Z</time>
      </trkpt>
      <trkpt lat="44.11369" lon="3.24242">
        <ele>678.59997558594</ele>
        <time>2020-10-02T15:34:46.000Z</time>
      </trkpt>
      <trkpt lat="44.11375" lon="3.24242">
        <ele>677.40002441406</ele>
        <time>2020-10-02T15:34:49.000Z</time>
      </trkpt>
      <trkpt lat="44.11377" lon="3.24242">
        <ele>676.59997558594</ele>
        <time>2020-10-02T15:34:50.000Z</time>
      </trkpt>
      <trkpt lat="44.11378" lon="3.2424">
        <ele>675.59997558594</ele>
        <time>2020-10-02T15:34:51.000Z</time>
      </trkpt>
      <trkpt lat="44.11381" lon="3.24234">
        <ele>674.59997558594</ele>
        <time>2020-10-02T15:34:53.000Z</time>
      </trkpt>
      <trkpt lat="44.11387" lon="3.2423">
        <ele>673.59997558594</ele>
        <time>2020-10-02T15:34:55.000Z</time>
      </trkpt>
      <trkpt lat="44.1139" lon="3.24228">
        <ele>673.20001220703</ele>
        <time>2020-10-02T15:34:56.000Z</time>
      </trkpt>
      <trkpt lat="44.11401" lon="3.24225">
        <ele>671.79998779297</ele>
        <time>2020-10-02T15:35:00.000Z</time>
      </trkpt>
      <trkpt lat="44.11401" lon="3.24225">
        <ele>671.59997558594</ele>
        <time>2020-10-02T15:35:01.000Z</time>
      </trkpt>
      <trkpt lat="44.11401" lon="3.24227">
        <ele>671</ele>
        <time>2020-10-02T15:35:02.000Z</time>
      </trkpt>
      <trkpt lat="44.11401" lon="3.24229">
        <ele>670.40002441406</ele>
        <time>2020-10-02T15:35:03.000Z</time>
      </trkpt>
      <trkpt lat="44.11397" lon="3.24234">
        <ele>669</ele>
        <time>2020-10-02T15:35:05.000Z</time>
      </trkpt>
      <trkpt lat="44.11395" lon="3.24236">
        <ele>668.40002441406</ele>
        <time>2020-10-02T15:35:06.000Z</time>
      </trkpt>
      <trkpt lat="44.11393" lon="3.24242">
        <ele>667.40002441406</ele>
        <time>2020-10-02T15:35:08.000Z</time>
      </trkpt>
      <trkpt lat="44.11395" lon="3.24251">
        <ele>666.40002441406</ele>
        <time>2020-10-02T15:35:10.000Z</time>
      </trkpt>
      <trkpt lat="44.11394" lon="3.24263">
        <ele>665</ele>
        <time>2020-10-02T15:35:12.000Z</time>
      </trkpt>
      <trkpt lat="44.11399" lon="3.24274">
        <ele>663.79998779297</ele>
        <time>2020-10-02T15:35:14.000Z</time>
      </trkpt>
      <trkpt lat="44.114" lon="3.24278">
        <ele>663.20001220703</ele>
        <time>2020-10-02T15:35:15.000Z</time>
      </trkpt>
      <trkpt lat="44.114" lon="3.24281">
        <ele>662.79998779297</ele>
        <time>2020-10-02T15:35:16.000Z</time>
      </trkpt>
      <trkpt lat="44.11398" lon="3.24287">
        <ele>660.59997558594</ele>
        <time>2020-10-02T15:35:18.000Z</time>
      </trkpt>
      <trkpt lat="44.11402" lon="3.24292">
        <ele>659.59997558594</ele>
        <time>2020-10-02T15:35:20.000Z</time>
      </trkpt>
      <trkpt lat="44.11399" lon="3.24298">
        <ele>658.59997558594</ele>
        <time>2020-10-02T15:35:22.000Z</time>
      </trkpt>
      <trkpt lat="44.11402" lon="3.24304">
        <ele>657</ele>
        <time>2020-10-02T15:35:26.000Z</time>
      </trkpt>
      <trkpt lat="44.11405" lon="3.24305">
        <ele>656.59997558594</ele>
        <time>2020-10-02T15:35:27.000Z</time>
      </trkpt>
      <trkpt lat="44.1141" lon="3.243">
        <ele>655.59997558594</ele>
        <time>2020-10-02T15:35:31.000Z</time>
      </trkpt>
      <trkpt lat="44.11411" lon="3.24298">
        <ele>655.20001220703</ele>
        <time>2020-10-02T15:35:32.000Z</time>
      </trkpt>
      <trkpt lat="44.11413" lon="3.24293">
        <ele>654.59997558594</ele>
        <time>2020-10-02T15:35:34.000Z</time>
      </trkpt>
      <trkpt lat="44.11419" lon="3.24279">
        <ele>653.20001220703</ele>
        <time>2020-10-02T15:35:38.000Z</time>
      </trkpt>
      <trkpt lat="44.11426" lon="3.24271">
        <ele>651.79998779297</ele>
        <time>2020-10-02T15:35:41.000Z</time>
      </trkpt>
      <trkpt lat="44.1143" lon="3.24267">
        <ele>650.40002441406</ele>
        <time>2020-10-02T15:35:43.000Z</time>
      </trkpt>
      <trkpt lat="44.11431" lon="3.24267">
        <ele>649.59997558594</ele>
        <time>2020-10-02T15:35:44.000Z</time>
      </trkpt>
      <trkpt lat="44.11432" lon="3.24267">
        <ele>648.79998779297</ele>
        <time>2020-10-02T15:35:45.000Z</time>
      </trkpt>
      <trkpt lat="44.11431" lon="3.24267">
        <ele>647.20001220703</ele>
        <time>2020-10-02T15:35:47.000Z</time>
      </trkpt>
      <trkpt lat="44.1143" lon="3.24266">
        <ele>645.20001220703</ele>
        <time>2020-10-02T15:35:48.000Z</time>
      </trkpt>
      <trkpt lat="44.11428" lon="3.24267">
        <ele>644</ele>
        <time>2020-10-02T15:35:50.000Z</time>
      </trkpt>
      <trkpt lat="44.11427" lon="3.24274">
        <ele>642.79998779297</ele>
        <time>2020-10-02T15:35:54.000Z</time>
      </trkpt>
      <trkpt lat="44.11429" lon="3.24281">
        <ele>642.20001220703</ele>
        <time>2020-10-02T15:35:57.000Z</time>
      </trkpt>
      <trkpt lat="44.11434" lon="3.24282">
        <ele>641.79998779297</ele>
        <time>2020-10-02T15:35:58.000Z</time>
      </trkpt>
      <trkpt lat="44.11435" lon="3.24282">
        <ele>641.40002441406</ele>
        <time>2020-10-02T15:35:59.000Z</time>
      </trkpt>
      <trkpt lat="44.11443" lon="3.24277">
        <ele>640</ele>
        <time>2020-10-02T15:36:02.000Z</time>
      </trkpt>
      <trkpt lat="44.11449" lon="3.24275">
        <ele>639</ele>
        <time>2020-10-02T15:36:04.000Z</time>
      </trkpt>
      <trkpt lat="44.11451" lon="3.24273">
        <ele>637.79998779297</ele>
        <time>2020-10-02T15:36:06.000Z</time>
      </trkpt>
      <trkpt lat="44.11453" lon="3.24273">
        <ele>636.20001220703</ele>
        <time>2020-10-02T15:36:08.000Z</time>
      </trkpt>
      <trkpt lat="44.11455" lon="3.24273">
        <ele>634</ele>
        <time>2020-10-02T15:36:10.000Z</time>
      </trkpt>
      <trkpt lat="44.11455" lon="3.24274">
        <ele>632.59997558594</ele>
        <time>2020-10-02T15:36:12.000Z</time>
      </trkpt>
      <trkpt lat="44.11455" lon="3.24275">
        <ele>631.40002441406</ele>
        <time>2020-10-02T15:36:14.000Z</time>
      </trkpt>
      <trkpt lat="44.11454" lon="3.24276">
        <ele>631.20001220703</ele>
        <time>2020-10-02T15:36:15.000Z</time>
      </trkpt>
      <trkpt lat="44.1145" lon="3.24282">
        <ele>630.59997558594</ele>
        <time>2020-10-02T15:36:18.000Z</time>
      </trkpt>
      <trkpt lat="44.1145" lon="3.24285">
        <ele>630.40002441406</ele>
        <time>2020-10-02T15:36:20.000Z</time>
      </trkpt>
      <trkpt lat="44.1145" lon="3.24284">
        <ele>629.40002441406</ele>
        <time>2020-10-02T15:36:23.000Z</time>
      </trkpt>
      <trkpt lat="44.11453" lon="3.24281">
        <ele>628.20001220703</ele>
        <time>2020-10-02T15:36:25.000Z</time>
      </trkpt>
      <trkpt lat="44.11466" lon="3.24277">
        <ele>626.79998779297</ele>
        <time>2020-10-02T15:36:28.000Z</time>
      </trkpt>
      <trkpt lat="44.11479" lon="3.24275">
        <ele>625.59997558594</ele>
        <time>2020-10-02T15:36:30.000Z</time>
      </trkpt>
      <trkpt lat="44.11493" lon="3.24274">
        <ele>623.79998779297</ele>
        <time>2020-10-02T15:36:32.000Z</time>
      </trkpt>
      <trkpt lat="44.11496" lon="3.24274">
        <ele>623.20001220703</ele>
        <time>2020-10-02T15:36:33.000Z</time>
      </trkpt>
      <trkpt lat="44.115" lon="3.24275">
        <ele>622.20001220703</ele>
        <time>2020-10-02T15:36:34.000Z</time>
      </trkpt>
      <trkpt lat="44.11502" lon="3.24275">
        <ele>621.20001220703</ele>
        <time>2020-10-02T15:36:35.000Z</time>
      </trkpt>
      <trkpt lat="44.11506" lon="3.24275">
        <ele>620</ele>
        <time>2020-10-02T15:36:36.000Z</time>
      </trkpt>
      <trkpt lat="44.11512" lon="3.24275">
        <ele>618.79998779297</ele>
        <time>2020-10-02T15:36:37.000Z</time>
      </trkpt>
      <trkpt lat="44.11521" lon="3.24276">
        <ele>617.20001220703</ele>
        <time>2020-10-02T15:36:39.000Z</time>
      </trkpt>
      <trkpt lat="44.1153" lon="3.24273">
        <ele>615.59997558594</ele>
        <time>2020-10-02T15:36:41.000Z</time>
      </trkpt>
      <trkpt lat="44.11533" lon="3.24269">
        <ele>613.79998779297</ele>
        <time>2020-10-02T15:36:43.000Z</time>
      </trkpt>
      <trkpt lat="44.11536" lon="3.24262">
        <ele>611.20001220703</ele>
        <time>2020-10-02T15:36:45.000Z</time>
      </trkpt>
      <trkpt lat="44.11537" lon="3.24258">
        <ele>609.59997558594</ele>
        <time>2020-10-02T15:36:47.000Z</time>
      </trkpt>
      <trkpt lat="44.11537" lon="3.24257">
        <ele>609</ele>
        <time>2020-10-02T15:36:48.000Z</time>
      </trkpt>
      <trkpt lat="44.11538" lon="3.24258">
        <ele>608.59997558594</ele>
        <time>2020-10-02T15:36:49.000Z</time>
      </trkpt>
      <trkpt lat="44.1154" lon="3.24262">
        <ele>607.20001220703</ele>
        <time>2020-10-02T15:36:51.000Z</time>
      </trkpt>
      <trkpt lat="44.11543" lon="3.24264">
        <ele>606.79998779297</ele>
        <time>2020-10-02T15:36:52.000Z</time>
      </trkpt>
      <trkpt lat="44.11546" lon="3.24265">
        <ele>606</ele>
        <time>2020-10-02T15:36:53.000Z</time>
      </trkpt>
      <trkpt lat="44.11549" lon="3.24267">
        <ele>605.20001220703</ele>
        <time>2020-10-02T15:36:54.000Z</time>
      </trkpt>
      <trkpt lat="44.11553" lon="3.2427">
        <ele>604.59997558594</ele>
        <time>2020-10-02T15:36:55.000Z</time>
      </trkpt>
      <trkpt lat="44.11556" lon="3.24274">
        <ele>604</ele>
        <time>2020-10-02T15:36:56.000Z</time>
      </trkpt>
      <trkpt lat="44.1156" lon="3.24278">
        <ele>603</ele>
        <time>2020-10-02T15:36:57.000Z</time>
      </trkpt>
      <trkpt lat="44.11564" lon="3.24282">
        <ele>602.20001220703</ele>
        <time>2020-10-02T15:36:58.000Z</time>
      </trkpt>
      <trkpt lat="44.11569" lon="3.24285">
        <ele>601.20001220703</ele>
        <time>2020-10-02T15:36:59.000Z</time>
      </trkpt>
      <trkpt lat="44.11575" lon="3.24292">
        <ele>599.59997558594</ele>
        <time>2020-10-02T15:37:01.000Z</time>
      </trkpt>
      <trkpt lat="44.1158" lon="3.24297">
        <ele>598</ele>
        <time>2020-10-02T15:37:03.000Z</time>
      </trkpt>
      <trkpt lat="44.11584" lon="3.24298">
        <ele>597.40002441406</ele>
        <time>2020-10-02T15:37:04.000Z</time>
      </trkpt>
      <trkpt lat="44.11588" lon="3.24298">
        <ele>596.40002441406</ele>
        <time>2020-10-02T15:37:05.000Z</time>
      </trkpt>
      <trkpt lat="44.11593" lon="3.24299">
        <ele>595.40002441406</ele>
        <time>2020-10-02T15:37:06.000Z</time>
      </trkpt>
      <trkpt lat="44.11601" lon="3.24299">
        <ele>593.20001220703</ele>
        <time>2020-10-02T15:37:08.000Z</time>
      </trkpt>
      <trkpt lat="44.11604" lon="3.24301">
        <ele>592.40002441406</ele>
        <time>2020-10-02T15:37:09.000Z</time>
      </trkpt>
      <trkpt lat="44.11607" lon="3.24303">
        <ele>591.40002441406</ele>
        <time>2020-10-02T15:37:10.000Z</time>
      </trkpt>
      <trkpt lat="44.11614" lon="3.24306">
        <ele>589.59997558594</ele>
        <time>2020-10-02T15:37:12.000Z</time>
      </trkpt>
      <trkpt lat="44.11619" lon="3.24306">
        <ele>589</ele>
        <time>2020-10-02T15:37:13.000Z</time>
      </trkpt>
      <trkpt lat="44.11622" lon="3.24303">
        <ele>587</ele>
        <time>2020-10-02T15:37:14.000Z</time>
      </trkpt>
      <trkpt lat="44.11627" lon="3.24299">
        <ele>585.79998779297</ele>
        <time>2020-10-02T15:37:16.000Z</time>
      </trkpt>
      <trkpt lat="44.1163" lon="3.24297">
        <ele>584.40002441406</ele>
        <time>2020-10-02T15:37:18.000Z</time>
      </trkpt>
      <trkpt lat="44.11635" lon="3.24299">
        <ele>583</ele>
        <time>2020-10-02T15:37:20.000Z</time>
      </trkpt>
      <trkpt lat="44.11638" lon="3.24306">
        <ele>581.20001220703</ele>
        <time>2020-10-02T15:37:22.000Z</time>
      </trkpt>
      <trkpt lat="44.11638" lon="3.24315">
        <ele>579.79998779297</ele>
        <time>2020-10-02T15:37:24.000Z</time>
      </trkpt>
      <trkpt lat="44.11637" lon="3.24321">
        <ele>578.40002441406</ele>
        <time>2020-10-02T15:37:26.000Z</time>
      </trkpt>
      <trkpt lat="44.11637" lon="3.24324">
        <ele>577.40002441406</ele>
        <time>2020-10-02T15:37:28.000Z</time>
      </trkpt>
      <trkpt lat="44.11638" lon="3.24324">
        <ele>577</ele>
        <time>2020-10-02T15:37:29.000Z</time>
      </trkpt>
      <trkpt lat="44.1164" lon="3.24324">
        <ele>576.59997558594</ele>
        <time>2020-10-02T15:37:30.000Z</time>
      </trkpt>
      <trkpt lat="44.11642" lon="3.24324">
        <ele>576.20001220703</ele>
        <time>2020-10-02T15:37:31.000Z</time>
      </trkpt>
      <trkpt lat="44.11648" lon="3.2432">
        <ele>574.79998779297</ele>
        <time>2020-10-02T15:37:33.000Z</time>
      </trkpt>
      <trkpt lat="44.11654" lon="3.24316">
        <ele>573.59997558594</ele>
        <time>2020-10-02T15:37:35.000Z</time>
      </trkpt>
      <trkpt lat="44.11657" lon="3.2431">
        <ele>572.20001220703</ele>
        <time>2020-10-02T15:37:37.000Z</time>
      </trkpt>
      <trkpt lat="44.11659" lon="3.24307">
        <ele>571</ele>
        <time>2020-10-02T15:37:38.000Z</time>
      </trkpt>
      <trkpt lat="44.1166" lon="3.24303">
        <ele>570.20001220703</ele>
        <time>2020-10-02T15:37:39.000Z</time>
      </trkpt>
      <trkpt lat="44.11661" lon="3.243">
        <ele>569.40002441406</ele>
        <time>2020-10-02T15:37:40.000Z</time>
      </trkpt>
      <trkpt lat="44.11658" lon="3.24294">
        <ele>566.79998779297</ele>
        <time>2020-10-02T15:37:42.000Z</time>
      </trkpt>
      <trkpt lat="44.11656" lon="3.24292">
        <ele>565.20001220703</ele>
        <time>2020-10-02T15:37:45.000Z</time>
      </trkpt>
      <trkpt lat="44.11656" lon="3.24293">
        <ele>564.59997558594</ele>
        <time>2020-10-02T15:37:46.000Z</time>
      </trkpt>
      <trkpt lat="44.11656" lon="3.24294">
        <ele>564</ele>
        <time>2020-10-02T15:37:47.000Z</time>
      </trkpt>
      <trkpt lat="44.11657" lon="3.24299">
        <ele>562.40002441406</ele>
        <time>2020-10-02T15:37:50.000Z</time>
      </trkpt>
      <trkpt lat="44.11659" lon="3.24304">
        <ele>561</ele>
        <time>2020-10-02T15:37:52.000Z</time>
      </trkpt>
      <trkpt lat="44.11661" lon="3.24306">
        <ele>560.59997558594</ele>
        <time>2020-10-02T15:37:53.000Z</time>
      </trkpt>
      <trkpt lat="44.11662" lon="3.2431">
        <ele>560</ele>
        <time>2020-10-02T15:37:54.000Z</time>
      </trkpt>
      <trkpt lat="44.11668" lon="3.24314">
        <ele>558.20001220703</ele>
        <time>2020-10-02T15:37:56.000Z</time>
      </trkpt>
      <trkpt lat="44.11671" lon="3.24314">
        <ele>557.40002441406</ele>
        <time>2020-10-02T15:37:57.000Z</time>
      </trkpt>
      <trkpt lat="44.11673" lon="3.24314">
        <ele>556.79998779297</ele>
        <time>2020-10-02T15:37:58.000Z</time>
      </trkpt>
      <trkpt lat="44.11677" lon="3.24311">
        <ele>555.79998779297</ele>
        <time>2020-10-02T15:38:00.000Z</time>
      </trkpt>
      <trkpt lat="44.11679" lon="3.24306">
        <ele>554.20001220703</ele>
        <time>2020-10-02T15:38:02.000Z</time>
      </trkpt>
      <trkpt lat="44.11679" lon="3.24302">
        <ele>553</ele>
        <time>2020-10-02T15:38:03.000Z</time>
      </trkpt>
      <trkpt lat="44.11678" lon="3.24295">
        <ele>551.40002441406</ele>
        <time>2020-10-02T15:38:05.000Z</time>
      </trkpt>
      <trkpt lat="44.11677" lon="3.2429">
        <ele>550.40002441406</ele>
        <time>2020-10-02T15:38:07.000Z</time>
      </trkpt>
      <trkpt lat="44.11677" lon="3.24287">
        <ele>549.79998779297</ele>
        <time>2020-10-02T15:38:08.000Z</time>
      </trkpt>
      <trkpt lat="44.11678" lon="3.24286">
        <ele>548.79998779297</ele>
        <time>2020-10-02T15:38:10.000Z</time>
      </trkpt>
      <trkpt lat="44.11678" lon="3.24288">
        <ele>547.79998779297</ele>
        <time>2020-10-02T15:38:11.000Z</time>
      </trkpt>
      <trkpt lat="44.11679" lon="3.2429">
        <ele>547.40002441406</ele>
        <time>2020-10-02T15:38:12.000Z</time>
      </trkpt>
      <trkpt lat="44.11683" lon="3.24296">
        <ele>546.40002441406</ele>
        <time>2020-10-02T15:38:14.000Z</time>
      </trkpt>
      <trkpt lat="44.11691" lon="3.24304">
        <ele>545.20001220703</ele>
        <time>2020-10-02T15:38:16.000Z</time>
      </trkpt>
      <trkpt lat="44.11695" lon="3.24307">
        <ele>544.40002441406</ele>
        <time>2020-10-02T15:38:17.000Z</time>
      </trkpt>
      <trkpt lat="44.11699" lon="3.24313">
        <ele>543.79998779297</ele>
        <time>2020-10-02T15:38:18.000Z</time>
      </trkpt>
      <trkpt lat="44.11708" lon="3.24324">
        <ele>542.40002441406</ele>
        <time>2020-10-02T15:38:20.000Z</time>
      </trkpt>
      <trkpt lat="44.11713" lon="3.24329">
        <ele>541.40002441406</ele>
        <time>2020-10-02T15:38:21.000Z</time>
      </trkpt>
      <trkpt lat="44.11717" lon="3.24334">
        <ele>540.59997558594</ele>
        <time>2020-10-02T15:38:22.000Z</time>
      </trkpt>
      <trkpt lat="44.11719" lon="3.2434">
        <ele>539.40002441406</ele>
        <time>2020-10-02T15:38:23.000Z</time>
      </trkpt>
      <trkpt lat="44.11721" lon="3.24347">
        <ele>538.40002441406</ele>
        <time>2020-10-02T15:38:24.000Z</time>
      </trkpt>
      <trkpt lat="44.11721" lon="3.24353">
        <ele>537</ele>
        <time>2020-10-02T15:38:25.000Z</time>
      </trkpt>
      <trkpt lat="44.11721" lon="3.24359">
        <ele>536</ele>
        <time>2020-10-02T15:38:26.000Z</time>
      </trkpt>
      <trkpt lat="44.1172" lon="3.24363">
        <ele>534.59997558594</ele>
        <time>2020-10-02T15:38:27.000Z</time>
      </trkpt>
      <trkpt lat="44.1172" lon="3.24366">
        <ele>533.40002441406</ele>
        <time>2020-10-02T15:38:28.000Z</time>
      </trkpt>
      <trkpt lat="44.11721" lon="3.24367">
        <ele>532.40002441406</ele>
        <time>2020-10-02T15:38:29.000Z</time>
      </trkpt>
      <trkpt lat="44.11722" lon="3.24367">
        <ele>531.40002441406</ele>
        <time>2020-10-02T15:38:30.000Z</time>
      </trkpt>
      <trkpt lat="44.11726" lon="3.24364">
        <ele>530.20001220703</ele>
        <time>2020-10-02T15:38:31.000Z</time>
      </trkpt>
      <trkpt lat="44.11735" lon="3.24362">
        <ele>528.40002441406</ele>
        <time>2020-10-02T15:38:33.000Z</time>
      </trkpt>
      <trkpt lat="44.11744" lon="3.24359">
        <ele>526.59997558594</ele>
        <time>2020-10-02T15:38:35.000Z</time>
      </trkpt>
      <trkpt lat="44.11751" lon="3.24352">
        <ele>525.40002441406</ele>
        <time>2020-10-02T15:38:37.000Z</time>
      </trkpt>
      <trkpt lat="44.11755" lon="3.24351">
        <ele>524.79998779297</ele>
        <time>2020-10-02T15:38:38.000Z</time>
      </trkpt>
      <trkpt lat="44.11757" lon="3.24351">
        <ele>524.59997558594</ele>
        <time>2020-10-02T15:38:39.000Z</time>
      </trkpt>
      <trkpt lat="44.11759" lon="3.24353">
        <ele>523</ele>
        <time>2020-10-02T15:38:40.000Z</time>
      </trkpt>
      <trkpt lat="44.1176" lon="3.24358">
        <ele>521.40002441406</ele>
        <time>2020-10-02T15:38:42.000Z</time>
      </trkpt>
      <trkpt lat="44.11761" lon="3.24361">
        <ele>520.20001220703</ele>
        <time>2020-10-02T15:38:43.000Z</time>
      </trkpt>
      <trkpt lat="44.11761" lon="3.24365">
        <ele>519</ele>
        <time>2020-10-02T15:38:44.000Z</time>
      </trkpt>
      <trkpt lat="44.1176" lon="3.2437">
        <ele>517.79998779297</ele>
        <time>2020-10-02T15:38:46.000Z</time>
      </trkpt>
      <trkpt lat="44.11759" lon="3.24371">
        <ele>517.40002441406</ele>
        <time>2020-10-02T15:38:47.000Z</time>
      </trkpt>
      <trkpt lat="44.11757" lon="3.24375">
        <ele>516.40002441406</ele>
        <time>2020-10-02T15:38:49.000Z</time>
      </trkpt>
      <trkpt lat="44.11758" lon="3.24376">
        <ele>515.59997558594</ele>
        <time>2020-10-02T15:38:51.000Z</time>
      </trkpt>
      <trkpt lat="44.1176" lon="3.24376">
        <ele>515</ele>
        <time>2020-10-02T15:38:52.000Z</time>
      </trkpt>
      <trkpt lat="44.11761" lon="3.24377">
        <ele>514</ele>
        <time>2020-10-02T15:38:53.000Z</time>
      </trkpt>
      <trkpt lat="44.11763" lon="3.24376">
        <ele>513</ele>
        <time>2020-10-02T15:38:54.000Z</time>
      </trkpt>
      <trkpt lat="44.11769" lon="3.24373">
        <ele>511.60000610352</ele>
        <time>2020-10-02T15:38:56.000Z</time>
      </trkpt>
      <trkpt lat="44.11776" lon="3.24368">
        <ele>511.20001220703</ele>
        <time>2020-10-02T15:38:57.000Z</time>
      </trkpt>
      <trkpt lat="44.11786" lon="3.24358">
        <ele>510.39999389648</ele>
        <time>2020-10-02T15:38:59.000Z</time>
      </trkpt>
      <trkpt lat="44.11793" lon="3.24351">
        <ele>509.60000610352</ele>
        <time>2020-10-02T15:39:01.000Z</time>
      </trkpt>
      <trkpt lat="44.11796" lon="3.24348">
        <ele>509.20001220703</ele>
        <time>2020-10-02T15:39:02.000Z</time>
      </trkpt>
      <trkpt lat="44.11799" lon="3.24345">
        <ele>507.39999389648</ele>
        <time>2020-10-02T15:39:04.000Z</time>
      </trkpt>
      <trkpt lat="44.118" lon="3.24344">
        <ele>506.60000610352</ele>
        <time>2020-10-02T15:39:05.000Z</time>
      </trkpt>
      <trkpt lat="44.11801" lon="3.24343">
        <ele>505.79998779297</ele>
        <time>2020-10-02T15:39:06.000Z</time>
      </trkpt>
      <trkpt lat="44.11803" lon="3.24343">
        <ele>502.79998779297</ele>
        <time>2020-10-02T15:39:08.000Z</time>
      </trkpt>
      <trkpt lat="44.11803" lon="3.24343">
        <ele>501.79998779297</ele>
        <time>2020-10-02T15:39:09.000Z</time>
      </trkpt>
      <trkpt lat="44.11803" lon="3.24344">
        <ele>500.39999389648</ele>
        <time>2020-10-02T15:39:11.000Z</time>
      </trkpt>
      <trkpt lat="44.11803" lon="3.24344">
        <ele>500</ele>
        <time>2020-10-02T15:39:12.000Z</time>
      </trkpt>
      <trkpt lat="44.11802" lon="3.24349">
        <ele>499.39999389648</ele>
        <time>2020-10-02T15:39:27.000Z</time>
      </trkpt>
      <trkpt lat="44.11802" lon="3.2435">
        <ele>499.39999389648</ele>
        <time>2020-10-02T15:39:31.000Z</time>
      </trkpt>
      <trkpt lat="44.11803" lon="3.24351">
        <ele>499.20001220703</ele>
        <time>2020-10-02T15:39:44.000Z</time>
      </trkpt>
      <trkpt lat="44.11802" lon="3.24351">
        <ele>499.39999389648</ele>
        <time>2020-10-02T15:39:59.000Z</time>
      </trkpt>
      <trkpt lat="44.11802" lon="3.24352">
        <ele>499.39999389648</ele>
        <time>2020-10-02T15:40:11.000Z</time>
      </trkpt>
      <trkpt lat="44.11802" lon="3.24351">
        <ele>499.39999389648</ele>
        <time>2020-10-02T15:40:26.000Z</time>
      </trkpt>
      <trkpt lat="44.11808" lon="3.24349">
        <ele>499.39999389648</ele>
        <time>2020-10-02T15:40:40.000Z</time>
      </trkpt>
      <trkpt lat="44.1181" lon="3.24344">
        <ele>499.60000610352</ele>
        <time>2020-10-02T15:40:53.000Z</time>
      </trkpt>
      <trkpt lat="44.11811" lon="3.24336">
        <ele>499.60000610352</ele>
        <time>2020-10-02T15:41:07.000Z</time>
      </trkpt>
      <trkpt lat="44.11809" lon="3.24328">
        <ele>499.39999389648</ele>
        <time>2020-10-02T15:41:22.000Z</time>
      </trkpt>
      <trkpt lat="44.11808" lon="3.24327">
        <ele>499.39999389648</ele>
        <time>2020-10-02T15:41:35.000Z</time>
      </trkpt>
      <trkpt lat="44.11808" lon="3.24331">
        <ele>499.39999389648</ele>
        <time>2020-10-02T15:41:49.000Z</time>
      </trkpt>
      <trkpt lat="44.11808" lon="3.2433">
        <ele>499.60000610352</ele>
        <time>2020-10-02T15:42:00.000Z</time>
      </trkpt>
      <trkpt lat="44.11809" lon="3.2433">
        <ele>499.79998779297</ele>
        <time>2020-10-02T15:42:16.000Z</time>
      </trkpt>
      <trkpt lat="44.1181" lon="3.2433">
        <ele>499.79998779297</ele>
        <time>2020-10-02T15:42:31.000Z</time>
      </trkpt>
      <trkpt lat="44.11813" lon="3.2432">
        <ele>499.79998779297</ele>
        <time>2020-10-02T15:42:43.000Z</time>
      </trkpt>
      <trkpt lat="44.11809" lon="3.243">
        <ele>499.60000610352</ele>
        <time>2020-10-02T15:42:47.000Z</time>
      </trkpt>
      <trkpt lat="44.11803" lon="3.24283">
        <ele>499.20001220703</ele>
        <time>2020-10-02T15:42:50.000Z</time>
      </trkpt>
      <trkpt lat="44.11802" lon="3.24277">
        <ele>498.39999389648</ele>
        <time>2020-10-02T15:42:52.000Z</time>
      </trkpt>
      <trkpt lat="44.11803" lon="3.24276">
        <ele>497.79998779297</ele>
        <time>2020-10-02T15:42:53.000Z</time>
      </trkpt>
      <trkpt lat="44.11807" lon="3.24277">
        <ele>496</ele>
        <time>2020-10-02T15:42:55.000Z</time>
      </trkpt>
      <trkpt lat="44.1181" lon="3.24279">
        <ele>495.20001220703</ele>
        <time>2020-10-02T15:42:56.000Z</time>
      </trkpt>
      <trkpt lat="44.11813" lon="3.24282">
        <ele>494.39999389648</ele>
        <time>2020-10-02T15:42:57.000Z</time>
      </trkpt>
      <trkpt lat="44.11817" lon="3.24286">
        <ele>493</ele>
        <time>2020-10-02T15:42:58.000Z</time>
      </trkpt>
      <trkpt lat="44.11821" lon="3.2429">
        <ele>492.20001220703</ele>
        <time>2020-10-02T15:42:59.000Z</time>
      </trkpt>
      <trkpt lat="44.11826" lon="3.24294">
        <ele>491.39999389648</ele>
        <time>2020-10-02T15:43:00.000Z</time>
      </trkpt>
      <trkpt lat="44.11835" lon="3.24301">
        <ele>489.79998779297</ele>
        <time>2020-10-02T15:43:02.000Z</time>
      </trkpt>
      <trkpt lat="44.11844" lon="3.24306">
        <ele>488</ele>
        <time>2020-10-02T15:43:04.000Z</time>
      </trkpt>
      <trkpt lat="44.11854" lon="3.24307">
        <ele>486.39999389648</ele>
        <time>2020-10-02T15:43:06.000Z</time>
      </trkpt>
      <trkpt lat="44.1186" lon="3.24309">
        <ele>484.60000610352</ele>
        <time>2020-10-02T15:43:08.000Z</time>
      </trkpt>
      <trkpt lat="44.11862" lon="3.24311">
        <ele>483.39999389648</ele>
        <time>2020-10-02T15:43:09.000Z</time>
      </trkpt>
      <trkpt lat="44.11864" lon="3.24318">
        <ele>482.20001220703</ele>
        <time>2020-10-02T15:43:11.000Z</time>
      </trkpt>
      <trkpt lat="44.11864" lon="3.2432">
        <ele>481.60000610352</ele>
        <time>2020-10-02T15:43:12.000Z</time>
      </trkpt>
      <trkpt lat="44.11865" lon="3.24323">
        <ele>481</ele>
        <time>2020-10-02T15:43:13.000Z</time>
      </trkpt>
      <trkpt lat="44.11865" lon="3.24334">
        <ele>480</ele>
        <time>2020-10-02T15:43:16.000Z</time>
      </trkpt>
      <trkpt lat="44.11863" lon="3.24346">
        <ele>479.79998779297</ele>
        <time>2020-10-02T15:43:19.000Z</time>
      </trkpt>
      <trkpt lat="44.11859" lon="3.24361">
        <ele>478.79998779297</ele>
        <time>2020-10-02T15:43:23.000Z</time>
      </trkpt>
      <trkpt lat="44.11858" lon="3.24364">
        <ele>478.20001220703</ele>
        <time>2020-10-02T15:43:24.000Z</time>
      </trkpt>
      <trkpt lat="44.11858" lon="3.24368">
        <ele>477.60000610352</ele>
        <time>2020-10-02T15:43:25.000Z</time>
      </trkpt>
      <trkpt lat="44.11858" lon="3.24375">
        <ele>475.79998779297</ele>
        <time>2020-10-02T15:43:27.000Z</time>
      </trkpt>
      <trkpt lat="44.11855" lon="3.24381">
        <ele>475.60000610352</ele>
        <time>2020-10-02T15:43:28.000Z</time>
      </trkpt>
      <trkpt lat="44.11856" lon="3.24391">
        <ele>474.79998779297</ele>
        <time>2020-10-02T15:43:30.000Z</time>
      </trkpt>
      <trkpt lat="44.11855" lon="3.24393">
        <ele>474.39999389648</ele>
        <time>2020-10-02T15:43:31.000Z</time>
      </trkpt>
      <trkpt lat="44.11856" lon="3.24393">
        <ele>473.79998779297</ele>
        <time>2020-10-02T15:43:32.000Z</time>
      </trkpt>
      <trkpt lat="44.11857" lon="3.24393">
        <ele>473.20001220703</ele>
        <time>2020-10-02T15:43:33.000Z</time>
      </trkpt>
      <trkpt lat="44.11863" lon="3.24391">
        <ele>471.79998779297</ele>
        <time>2020-10-02T15:43:35.000Z</time>
      </trkpt>
      <trkpt lat="44.11867" lon="3.24389">
        <ele>470.79998779297</ele>
        <time>2020-10-02T15:43:36.000Z</time>
      </trkpt>
      <trkpt lat="44.11872" lon="3.24384">
        <ele>469.60000610352</ele>
        <time>2020-10-02T15:43:37.000Z</time>
      </trkpt>
      <trkpt lat="44.11872" lon="3.24382">
        <ele>468.39999389648</ele>
        <time>2020-10-02T15:43:38.000Z</time>
      </trkpt>
      <trkpt lat="44.11868" lon="3.24386">
        <ele>466.60000610352</ele>
        <time>2020-10-02T15:43:40.000Z</time>
      </trkpt>
      <trkpt lat="44.11868" lon="3.24394">
        <ele>465.60000610352</ele>
        <time>2020-10-02T15:43:42.000Z</time>
      </trkpt>
      <trkpt lat="44.11871" lon="3.24401">
        <ele>464.20001220703</ele>
        <time>2020-10-02T15:43:44.000Z</time>
      </trkpt>
      <trkpt lat="44.11871" lon="3.24408">
        <ele>462.39999389648</ele>
        <time>2020-10-02T15:43:46.000Z</time>
      </trkpt>
      <trkpt lat="44.11878" lon="3.24411">
        <ele>461.20001220703</ele>
        <time>2020-10-02T15:43:48.000Z</time>
      </trkpt>
      <trkpt lat="44.11882" lon="3.2441">
        <ele>460.39999389648</ele>
        <time>2020-10-02T15:43:49.000Z</time>
      </trkpt>
      <trkpt lat="44.11885" lon="3.24409">
        <ele>459.39999389648</ele>
        <time>2020-10-02T15:43:50.000Z</time>
      </trkpt>
      <trkpt lat="44.11888" lon="3.24409">
        <ele>458</ele>
        <time>2020-10-02T15:43:51.000Z</time>
      </trkpt>
      <trkpt lat="44.11889" lon="3.24411">
        <ele>456.79998779297</ele>
        <time>2020-10-02T15:43:52.000Z</time>
      </trkpt>
      <trkpt lat="44.1189" lon="3.24416">
        <ele>455.20001220703</ele>
        <time>2020-10-02T15:43:54.000Z</time>
      </trkpt>
      <trkpt lat="44.11888" lon="3.24417">
        <ele>454.20001220703</ele>
        <time>2020-10-02T15:43:55.000Z</time>
      </trkpt>
      <trkpt lat="44.11887" lon="3.24417">
        <ele>451.79998779297</ele>
        <time>2020-10-02T15:43:56.000Z</time>
      </trkpt>
      <trkpt lat="44.11885" lon="3.24419">
        <ele>450.60000610352</ele>
        <time>2020-10-02T15:43:57.000Z</time>
      </trkpt>
      <trkpt lat="44.11883" lon="3.24428">
        <ele>449</ele>
        <time>2020-10-02T15:43:59.000Z</time>
      </trkpt>
      <trkpt lat="44.11881" lon="3.24433">
        <ele>448</ele>
        <time>2020-10-02T15:44:00.000Z</time>
      </trkpt>
      <trkpt lat="44.1188" lon="3.24437">
        <ele>447.20001220703</ele>
        <time>2020-10-02T15:44:01.000Z</time>
      </trkpt>
      <trkpt lat="44.11877" lon="3.24444">
        <ele>445.39999389648</ele>
        <time>2020-10-02T15:44:03.000Z</time>
      </trkpt>
      <trkpt lat="44.11878" lon="3.24445">
        <ele>444.60000610352</ele>
        <time>2020-10-02T15:44:04.000Z</time>
      </trkpt>
      <trkpt lat="44.11881" lon="3.24445">
        <ele>443.60000610352</ele>
        <time>2020-10-02T15:44:05.000Z</time>
      </trkpt>
      <trkpt lat="44.11885" lon="3.24442">
        <ele>442</ele>
        <time>2020-10-02T15:44:07.000Z</time>
      </trkpt>
      <trkpt lat="44.11887" lon="3.2444">
        <ele>441.39999389648</ele>
        <time>2020-10-02T15:44:08.000Z</time>
      </trkpt>
      <trkpt lat="44.11889" lon="3.24439">
        <ele>440.79998779297</ele>
        <time>2020-10-02T15:44:09.000Z</time>
      </trkpt>
      <trkpt lat="44.11894" lon="3.24433">
        <ele>439.20001220703</ele>
        <time>2020-10-02T15:44:11.000Z</time>
      </trkpt>
      <trkpt lat="44.11897" lon="3.24429">
        <ele>438.39999389648</ele>
        <time>2020-10-02T15:44:12.000Z</time>
      </trkpt>
      <trkpt lat="44.11899" lon="3.24425">
        <ele>437.60000610352</ele>
        <time>2020-10-02T15:44:13.000Z</time>
      </trkpt>
      <trkpt lat="44.11899" lon="3.24419">
        <ele>436.20001220703</ele>
        <time>2020-10-02T15:44:15.000Z</time>
      </trkpt>
      <trkpt lat="44.11898" lon="3.24418">
        <ele>435.60000610352</ele>
        <time>2020-10-02T15:44:16.000Z</time>
      </trkpt>
      <trkpt lat="44.11898" lon="3.24418">
        <ele>434.79998779297</ele>
        <time>2020-10-02T15:44:17.000Z</time>
      </trkpt>
      <trkpt lat="44.11898" lon="3.2442">
        <ele>434</ele>
        <time>2020-10-02T15:44:18.000Z</time>
      </trkpt>
      <trkpt lat="44.11898" lon="3.24422">
        <ele>433.20001220703</ele>
        <time>2020-10-02T15:44:19.000Z</time>
      </trkpt>
      <trkpt lat="44.11895" lon="3.24429">
        <ele>432.20001220703</ele>
        <time>2020-10-02T15:44:20.000Z</time>
      </trkpt>
      <trkpt lat="44.11895" lon="3.24434">
        <ele>431.20001220703</ele>
        <time>2020-10-02T15:44:21.000Z</time>
      </trkpt>
      <trkpt lat="44.11897" lon="3.24447">
        <ele>429.20001220703</ele>
        <time>2020-10-02T15:44:23.000Z</time>
      </trkpt>
      <trkpt lat="44.11897" lon="3.24447">
        <ele>427.39999389648</ele>
        <time>2020-10-02T15:44:24.000Z</time>
      </trkpt>
      <trkpt lat="44.11896" lon="3.24458">
        <ele>426.39999389648</ele>
        <time>2020-10-02T15:44:26.000Z</time>
      </trkpt>
      <trkpt lat="44.11897" lon="3.24465">
        <ele>425</ele>
        <time>2020-10-02T15:44:28.000Z</time>
      </trkpt>
      <trkpt lat="44.11905" lon="3.2447">
        <ele>423.79998779297</ele>
        <time>2020-10-02T15:44:30.000Z</time>
      </trkpt>
      <trkpt lat="44.11909" lon="3.24472">
        <ele>423.20001220703</ele>
        <time>2020-10-02T15:44:31.000Z</time>
      </trkpt>
      <trkpt lat="44.1191" lon="3.24474">
        <ele>422.20001220703</ele>
        <time>2020-10-02T15:44:32.000Z</time>
      </trkpt>
      <trkpt lat="44.11911" lon="3.24475">
        <ele>420.79998779297</ele>
        <time>2020-10-02T15:44:33.000Z</time>
      </trkpt>
      <trkpt lat="44.11912" lon="3.24476">
        <ele>419.20001220703</ele>
        <time>2020-10-02T15:44:35.000Z</time>
      </trkpt>
      <trkpt lat="44.11914" lon="3.24477">
        <ele>418.20001220703</ele>
        <time>2020-10-02T15:44:38.000Z</time>
      </trkpt>
      <trkpt lat="44.11914" lon="3.24476">
        <ele>418</ele>
        <time>2020-10-02T15:44:44.000Z</time>
      </trkpt>
      <trkpt lat="44.11913" lon="3.24476">
        <ele>418.20001220703</ele>
        <time>2020-10-02T15:45:00.000Z</time>
      </trkpt>
      <trkpt lat="44.11912" lon="3.24477">
        <ele>418.20001220703</ele>
        <time>2020-10-02T15:45:12.000Z</time>
      </trkpt>
      <trkpt lat="44.11911" lon="3.24477">
        <ele>418.20001220703</ele>
        <time>2020-10-02T15:45:24.000Z</time>
      </trkpt>
      <trkpt lat="44.11911" lon="3.24477">
        <ele>418.20001220703</ele>
        <time>2020-10-02T15:45:39.000Z</time>
      </trkpt>
      <trkpt lat="44.1191" lon="3.24476">
        <ele>418.20001220703</ele>
        <time>2020-10-02T15:45:53.000Z</time>
      </trkpt>
      <trkpt lat="44.11915" lon="3.24481">
        <ele>418.20001220703</ele>
        <time>2020-10-02T15:46:07.000Z</time>
      </trkpt>
      <trkpt lat="44.11933" lon="3.24489">
        <ele>418.20001220703</ele>
        <time>2020-10-02T15:46:12.000Z</time>
      </trkpt>
      <trkpt lat="44.11943" lon="3.24501">
        <ele>418</ele>
        <time>2020-10-02T15:46:16.000Z</time>
      </trkpt>
      <trkpt lat="44.11946" lon="3.24528">
        <ele>417.39999389648</ele>
        <time>2020-10-02T15:46:21.000Z</time>
      </trkpt>
      <trkpt lat="44.11953" lon="3.24546">
        <ele>417.20001220703</ele>
        <time>2020-10-02T15:46:26.000Z</time>
      </trkpt>
      <trkpt lat="44.11957" lon="3.2455">
        <ele>417.20001220703</ele>
        <time>2020-10-02T15:46:28.000Z</time>
      </trkpt>
      <trkpt lat="44.11956" lon="3.24555">
        <ele>417.20001220703</ele>
        <time>2020-10-02T15:46:30.000Z</time>
      </trkpt>
      <trkpt lat="44.11948" lon="3.24566">
        <ele>417</ele>
        <time>2020-10-02T15:46:34.000Z</time>
      </trkpt>
      <trkpt lat="44.11941" lon="3.24573">
        <ele>417</ele>
        <time>2020-10-02T15:46:37.000Z</time>
      </trkpt>
      <trkpt lat="44.11928" lon="3.24583">
        <ele>416.39999389648</ele>
        <time>2020-10-02T15:46:43.000Z</time>
      </trkpt>
      <trkpt lat="44.11926" lon="3.24584">
        <ele>416.39999389648</ele>
        <time>2020-10-02T15:46:45.000Z</time>
      </trkpt>
      <trkpt lat="44.11924" lon="3.24589">
        <ele>416</ele>
        <time>2020-10-02T15:46:52.000Z</time>
      </trkpt>
      <trkpt lat="44.11923" lon="3.2459">
        <ele>415.39999389648</ele>
        <time>2020-10-02T15:47:05.000Z</time>
      </trkpt>
      <trkpt lat="44.11923" lon="3.2459">
        <ele>415.20001220703</ele>
        <time>2020-10-02T15:47:09.000Z</time>
      </trkpt>
      <trkpt lat="44.11923" lon="3.24591">
        <ele>414</ele>
        <time>2020-10-02T15:47:38.000Z</time>
      </trkpt>
      <trkpt lat="44.11923" lon="3.24591">
        <ele>414</ele>
        <time>2020-10-02T15:47:39.000Z</time>
      </trkpt>
      <trkpt lat="44.11923" lon="3.24592">
        <ele>413</ele>
        <time>2020-10-02T15:47:52.000Z</time>
      </trkpt>
      <trkpt lat="44.11923" lon="3.24592">
        <ele>412.79998779297</ele>
        <time>2020-10-02T15:47:57.000Z</time>
      </trkpt>
      <trkpt lat="44.11923" lon="3.24591">
        <ele>411.79998779297</ele>
        <time>2020-10-02T15:48:11.000Z</time>
      </trkpt>
      <trkpt lat="44.11923" lon="3.24591">
        <ele>411.39999389648</ele>
        <time>2020-10-02T15:48:17.000Z</time>
      </trkpt>
      <trkpt lat="44.11925" lon="3.24592">
        <ele>410.79998779297</ele>
        <time>2020-10-02T15:48:32.000Z</time>
      </trkpt>
      <trkpt lat="44.11924" lon="3.24592">
        <ele>410</ele>
        <time>2020-10-02T15:48:43.000Z</time>
      </trkpt>
      <trkpt lat="44.11925" lon="3.24592">
        <ele>410</ele>
        <time>2020-10-02T15:48:44.000Z</time>
      </trkpt>
    </trkseg>
  </trk>
</gpx>